Data for 05/04/2011

Time Sea-Level Adjusted Pressure Absolute Pressure Temperature Relative Humidity Dew Point Precipitation   
(mb) (inHg) (mb) (inHg) (C) (F) (%) (C) (F) (mm) (in)
00:01 1025 30.27 854 25.22 0.5 32.9 61 -6.3 20.7 0.904 0.036
00:02 1025 30.27 854 25.22 0.3 32.6 61 -6.2 20.8 0.803 0.032
00:03 1025 30.27 854 25.22 0.2 32.4 63 -6 21.2 0.651 0.026
00:04 1025 30.27 854 25.22 0.1 32.2 64 -6 21.3 0.543 0.021
00:05 1025 30.27 854 25.22 0 32 64 -6 21.2 0.436 0.017
00:06 1025 30.27 854 25.22 -0 32 63 -6.2 20.9 0.386 0.015
00:07 1025 30.27 854 25.22 -0 32 63 -6.2 20.9 0.386 0.015
00:08 1025 30.27 854 25.22 -0.1 31.9 64 -6.2 20.9 0.352 0.014
00:09 1025 30.27 854 25.22 -0.1 31.8 64 -6 21.1 0.33 0.013
00:10 1025 30.27 854 25.22 -0.2 31.6 65 -6 21.2 0.234 0.009
00:11 1025 30.27 854 25.22 -0.3 31.5 65 -6.1 21.1 0.177 0.007
00:12 1025 30.27 854 25.22 -0.3 31.5 66 -6 21.3 0.115 0.005
00:13 1025 30.27 854 25.22 -0.4 31.4 65 -6.1 21.1 0.081 0.003
00:14 1025 30.27 854 25.22 -0.3 31.4 65 -6.1 20.9 0.059 0.002
00:15 1025 30.27 854 25.22 -0.3 31.4 65 -6.1 21.1 0.076 0.003
00:16 1025 30.27 854 25.22 -0.3 31.4 66 -6 21.2 0.093 0.004
00:17 1025 30.27 854 25.22 -0.3 31.4 66 -5.9 21.4 0.065 0.003
00:18 1025 30.27 854 25.22 -0.4 31.3 66 -5.9 21.3 0.026 0.001
00:19 1025 30.27 854 25.22 -0.4 31.3 66 -5.9 21.3 0.02 0.001
00:20 1025 30.27 855 25.25 -0.5 31.2 67 -5.9 21.4 -0.019 -0.001
00:21 1025 30.27 855 25.25 -0.5 31.2 67 -5.9 21.5 -0.076 -0.003
00:22 1025 30.27 855 25.25 -0.5 31.1 67 -5.8 21.5 -0.093 -0.004
00:23 1025 30.27 855 25.25 -0.5 31 68 -5.8 21.5 -0.121 -0.005
00:24 1025 30.27 855 25.25 -0.6 30.9 68 -5.8 21.5 -0.189 -0.007
00:25 1025 30.27 855 25.25 -0.6 30.9 67 -5.9 21.4 -0.189 -0.007
00:26 1025 30.27 855 25.25 -0.5 31.1 67 -6 21.3 -0.172 -0.007
00:27 1025 30.27 855 25.25 -0.5 31.2 67 -5.9 21.4 -0.087 -0.003
00:28 1025 30.27 855 25.25 -0.4 31.3 66 -5.9 21.4 -0.013 -0.001
00:29 1025 30.27 855 25.25 -0.4 31.3 66 -5.9 21.4 0.004 0
00:30 1025 30.27 855 25.25 -0.3 31.4 66 -6 21.3 0.066 0.003
00:31 1025 30.27 855 25.25 -0.3 31.4 66 -6 21.2 0.044 0.002
00:32 1025 30.27 855 25.25 -0.4 31.4 65 -6.2 20.9 0.049 0.002
00:33 1025 30.27 855 25.25 -0.4 31.3 65 -6.2 20.9 0.004 0
00:34 1025 30.27 855 25.25 -0.6 31 66 -6.2 20.8 -0.12 -0.005
00:35 1026 30.3 855 25.25 -0.7 30.7 65 -6.4 20.5 -0.317 -0.012
00:36 1026 30.3 855 25.25 -0.8 30.6 66 -6.4 20.4 -0.363 -0.014
00:37 1026 30.3 855 25.25 -0.8 30.6 66 -6.4 20.5 -0.368 -0.014
00:38 1026 30.3 855 25.25 -0.7 30.7 65 -6.5 20.3 -0.367 -0.014
00:39 1026 30.3 855 25.25 -0.6 31 63 -6.7 20 -0.243 -0.01
00:40 1026 30.3 855 25.25 -0.4 31.4 62 -6.7 19.9 -0.05 -0.002
00:41 1026 30.3 855 25.25 -0.2 31.7 62 -6.6 20.1 0.121 0.005
00:42 1026 30.3 855 25.25 -0.1 31.8 62 -6.5 20.3 0.223 0.009
00:43 1026 30.3 855 25.25 -0 31.9 61 -6.6 20.1 0.302 0.012
00:44 1026 30.3 855 25.25 0 32 61 -6.7 20 0.331 0.013
00:45 1026 30.3 855 25.25 0 32 61 -6.5 20.2 0.371 0.015
00:46 1026 30.3 855 25.25 0 32 61 -6.6 20.1 0.428 0.017
00:47 1026 30.3 855 25.25 -0 32 61 -6.7 20 0.383 0.015
00:48 1026 30.3 855 25.25 -0 32 62 -6.4 20.5 0.371 0.015
00:49 1026 30.3 855 25.25 0 32 60 -6.8 19.8 0.35 0.014
00:50 1026 30.3 855 25.25 0.1 32.1 61 -6.7 20 0.413 0.016
00:51 1026 30.3 855 25.25 0.1 32.2 60 -6.8 19.7 0.475 0.019
00:52 1026 30.3 855 25.25 0.1 32.2 60 -6.7 19.9 0.488 0.019
00:53 1026 30.3 855 25.25 0.1 32.2 61 -6.5 20.3 0.482 0.019
00:54 1026 30.3 855 25.25 0.1 32.1 60 -6.7 19.9 0.437 0.017
00:55 1026 30.3 855 25.25 0.1 32.2 60 -6.7 19.9 0.482 0.019
00:56 1026 30.3 855 25.25 0.1 32.2 59 -6.9 19.6 0.505 0.02
00:57 1026 30.3 855 25.25 0.2 32.3 59 -7 19.4 0.55 0.022
00:58 1026 30.3 855 25.25 0.2 32.4 60 -6.6 20.2 0.602 0.024
00:59 1026 30.3 855 25.25 0.2 32.3 61 -6.4 20.4 0.574 0.023
01:00 1026 30.3 855 25.25 0.1 32.2 62 -6.3 20.6 0.551 0.022
01:01 1026 30.3 855 25.25 -0 32 63 -6.2 20.8 0.394 0.016
01:02 1026 30.3 855 25.25 -0.2 31.7 65 -5.9 21.4 0.269 0.011
01:03 1026 30.3 855 25.25 -0.4 31.4 66 -5.9 21.4 0.088 0.003
01:04 1026 30.3 855 25.25 -0.5 31.1 66 -6 21.2 -0.059 -0.002
01:05 1026 30.3 855 25.25 -0.6 30.9 67 -6.1 21.1 -0.178 -0.007
01:06 1026 30.3 855 25.25 -0.7 30.7 68 -5.9 21.4 -0.251 -0.01
01:07 1026 30.3 855 25.25 -0.8 30.6 68 -5.9 21.3 -0.364 -0.014
01:08 1026 30.3 855 25.25 -0.9 30.4 69 -5.9 21.4 -0.449 -0.018
01:09 1026 30.3 855 25.25 -0.9 30.3 69 -5.9 21.3 -0.534 -0.021
01:10 1026 30.3 855 25.25 -1 30.3 68 -6.2 20.9 -0.511 -0.02
01:11 1026 30.3 855 25.25 -0.9 30.3 68 -6.2 20.9 -0.516 -0.02
01:12 1026 30.3 855 25.25 -0.8 30.5 66 -6.4 20.5 -0.482 -0.019
01:13 1026 30.3 855 25.25 -0.6 30.9 66 -6.2 20.9 -0.272 -0.011
01:14 1026 30.3 855 25.25 -0.5 31.1 66 -6 21.2 -0.148 -0.006
01:15 1026 30.3 855 25.25 -0.5 31.1 65 -6.3 20.7 -0.114 -0.004
01:16 1026 30.3 855 25.25 -0.4 31.2 65 -6.1 20.9 -0.045 -0.002
01:17 1026 30.3 855 25.25 -0.5 31.1 66 -6.2 20.9 -0.096 -0.004
01:18 1026 30.3 855 25.25 -0.6 31 66 -6.1 21.1 -0.159 -0.006
01:19 1026 30.3 855 25.25 -0.7 30.7 67 -6 21.1 -0.311 -0.012
01:20 1026 30.3 855 25.25 -0.8 30.6 67 -6.2 20.9 -0.396 -0.016
01:21 1026 30.3 855 25.25 -0.8 30.6 67 -6.2 20.9 -0.362 -0.014
01:22 1026 30.3 855 25.25 -0.7 30.7 66 -6.2 20.8 -0.328 -0.013
01:23 1026 30.3 855 25.25 -0.6 30.8 66 -6.3 20.7 -0.283 -0.011
01:24 1026 30.3 855 25.25 -0.6 31 65 -6.3 20.7 -0.226 -0.009
01:25 1026 30.3 855 25.25 -0.6 31 66 -6.1 21 -0.164 -0.006
01:26 1025 30.27 855 25.25 -0.6 30.9 65 -6.4 20.5 -0.22 -0.009
01:27 1025 30.27 855 25.25 -0.4 31.3 60 -7.3 18.9 -0.056 -0.002
01:28 1026 30.3 855 25.25 0.2 32.3 59 -6.9 19.7 0.459 0.018
01:29 1026 30.3 855 25.25 0.3 32.6 61 -6.4 20.5 0.692 0.027
01:30 1026 30.3 855 25.25 0.2 32.4 61 -6.4 20.6 0.618 0.024
01:31 1026 30.3 855 25.25 0.1 32.2 62 -6.3 20.6 0.488 0.019
01:32 1025 30.27 855 25.25 -0 31.9 62 -6.5 20.3 0.341 0.013
01:33 1026 30.3 855 25.25 -0.1 31.8 61 -6.8 19.7 0.284 0.011
01:34 1025 30.27 855 25.25 0 32 62 -6.3 20.6 0.386 0.015
01:35 1026 30.3 855 25.25 -0.1 31.8 62 -6.5 20.3 0.244 0.01
01:36 1025 30.27 855 25.25 -0.2 31.6 62 -6.7 19.9 0.154 0.006
01:37 1026 30.3 855 25.25 -0.2 31.6 63 -6.5 20.3 0.227 0.009
01:38 1025 30.27 855 25.25 -0.3 31.5 64 -6.4 20.5 0.182 0.007
01:39 1026 30.3 855 25.25 -0.3 31.4 63 -6.4 20.4 0.058 0.002
01:40 1026 30.3 855 25.25 -0.4 31.3 64 -6.4 20.5 0.024 0.001
01:41 1026 30.3 855 25.25 -0.4 31.3 63 -6.6 20.2 0.058 0.002
01:42 1025 30.27 855 25.25 -0.3 31.4 64 -6.3 20.7 0.069 0.003
01:43 1026 30.3 855 25.25 -0.5 31.2 66 -6.1 21 -0.056 -0.002
01:44 1026 30.3 855 25.25 -0.6 30.9 66 -6.1 20.9 -0.169 -0.007
01:45 1026 30.3 855 25.25 -0.7 30.7 67 -6.2 20.9 -0.288 -0.011
01:46 1026 30.3 855 25.25 -0.8 30.6 65 -6.5 20.2 -0.345 -0.014
01:47 1026 30.3 855 25.25 -0.6 30.9 65 -6.4 20.5 -0.22 -0.009
01:48 1026 30.3 855 25.25 -0.5 31 65 -6.3 20.6 -0.135 -0.005
01:49 1026 30.3 855 25.25 -0.5 31 66 -6.2 20.8 -0.175 -0.007
01:50 1026 30.3 855 25.25 -0.6 30.9 66 -6.2 20.9 -0.214 -0.008
01:51 1026 30.3 855 25.25 -0.7 30.7 67 -6.1 20.9 -0.271 -0.011
01:52 1026 30.3 855 25.25 -0.8 30.6 68 -6 21.2 -0.39 -0.015
01:53 1026 30.3 855 25.25 -0.9 30.4 67 -6.2 20.9 -0.452 -0.018
01:54 1026 30.3 855 25.25 -0.8 30.5 67 -6.3 20.7 -0.446 -0.018
01:55 1026 30.3 855 25.25 -0.8 30.6 66 -6.4 20.4 -0.412 -0.016
01:56 1026 30.3 855 25.25 -0.7 30.8 66 -6.3 20.6 -0.316 -0.012
01:57 1026 30.3 855 25.25 -0.6 31 65 -6.3 20.6 -0.22 -0.009
01:58 1026 30.3 855 25.25 -0.6 31 66 -6.1 21 -0.152 -0.006
01:59 1026 30.3 855 25.25 -0.6 30.8 67 -6 21.2 -0.248 -0.01
02:00 1026 30.3 855 25.25 -0.7 30.7 67 -6 21.2 -0.271 -0.011
02:01 1026 30.3 855 25.25 -0.7 30.8 67 -6.1 21 -0.243 -0.01
02:02 1026 30.3 855 25.25 -0.5 31 67 -6 21.2 -0.163 -0.006
02:03 1026 30.3 855 25.25 -0.5 31.1 65 -6.2 20.8 -0.095 -0.004
02:04 1026 30.3 855 25.25 -0.4 31.3 66 -6 21.2 0.001 0
02:05 1026 30.3 855 25.25 -0.3 31.5 66 -5.9 21.4 0.092 0.004
02:06 1026 30.3 855 25.25 -0.2 31.6 66 -5.8 21.5 0.171 0.007
02:07 1026 30.3 855 25.25 -0.2 31.6 67 -5.6 21.9 0.205 0.008
02:08 1026 30.3 855 25.25 -0.2 31.6 67 -5.6 21.9 0.182 0.007
02:09 1026 30.3 855 25.25 -0.2 31.6 67 -5.7 21.7 0.16 0.006
02:10 1026 30.3 855 25.25 -0.2 31.7 66 -5.7 21.7 0.228 0.009
02:11 1026 30.3 855 25.25 -0.2 31.7 66 -5.7 21.8 0.222 0.009
02:12 1026 30.3 855 25.25 -0.2 31.7 68 -5.5 22.1 0.233 0.009
02:13 1026 30.3 855 25.25 -0.3 31.5 68 -5.5 22.2 0.154 0.006
02:14 1026 30.3 855 25.25 -0.3 31.5 70 -5.2 22.7 0.131 0.005
02:15 1026 30.3 855 25.25 -0.4 31.3 70 -5.2 22.6 0.052 0.002
02:16 1026 30.3 855 25.25 -0.4 31.3 70 -5.2 22.6 0.035 0.001
02:17 1026 30.3 855 25.25 -0.4 31.4 69 -5.3 22.5 0.058 0.002
02:18 1026 30.3 855 25.25 -0.3 31.4 70 -5.2 22.7 0.075 0.003
02:19 1026 30.3 855 25.25 -0.4 31.4 70 -5.2 22.6 0.08 0.003
02:20 1026 30.3 855 25.25 -0.4 31.4 69 -5.3 22.4 0.086 0.003
02:21 1026 30.3 855 25.25 -0.3 31.4 69 -5.3 22.5 0.092 0.004
02:22 1026 30.3 855 25.25 -0.3 31.4 69 -5.3 22.5 0.092 0.004
02:23 1026 30.3 855 25.25 -0.3 31.4 69 -5.3 22.5 0.092 0.004
02:24 1026 30.3 855 25.25 -0.3 31.4 69 -5.3 22.4 0.086 0.003
02:25 1026 30.3 855 25.25 -0.3 31.4 70 -5.2 22.6 0.092 0.004
02:26 1026 30.3 855 25.25 -0.4 31.3 70 -5.3 22.5 0.029 0.001
02:27 1026 30.3 855 25.25 -0.4 31.3 70 -5.2 22.6 -0.016 -0.001
02:28 1026 30.3 855 25.25 -0.5 31.1 70 -5.2 22.6 -0.056 -0.002
02:29 1026 30.3 855 25.25 -0.5 31 71 -5.3 22.5 -0.09 -0.004
02:30 1026 30.3 855 25.25 -0.6 30.9 71 -5.3 22.5 -0.191 -0.008
02:31 1026 30.3 855 25.25 -0.6 30.9 72 -5.2 22.7 -0.231 -0.009
02:32 1026 30.3 855 25.25 -0.7 30.7 72 -5.1 22.7 -0.293 -0.012
02:33 1026 30.3 855 25.25 -0.8 30.6 72 -5.2 22.6 -0.299 -0.012
02:34 1026 30.3 855 25.25 -0.7 30.7 71 -5.3 22.5 -0.339 -0.013
02:35 1026 30.3 855 25.25 -0.8 30.6 72 -5.2 22.7 -0.367 -0.014
02:36 1026 30.3 855 25.25 -0.8 30.5 73 -5.2 22.7 -0.418 -0.016
02:37 1026 30.3 855 25.25 -0.9 30.4 73 -5.1 22.8 -0.509 -0.02
02:38 1026 30.3 855 25.25 -1 30.2 73 -5.2 22.7 -0.537 -0.021
02:39 1026 30.3 855 25.25 -1 30.2 73 -5.2 22.7 -0.571 -0.022
02:40 1026 30.3 855 25.25 -1.1 30.1 74 -5.1 22.8 -0.633 -0.025
02:41 1026 30.3 855 25.25 -1.1 30 74 -5.1 22.8 -0.667 -0.026
02:42 1026 30.3 855 25.25 -1.1 30 74 -5.2 22.7 -0.701 -0.028
02:43 1026 30.3 855 25.25 -1.2 29.9 74 -5.2 22.6 -0.758 -0.03
02:44 1026 30.3 855 25.25 -1.2 29.9 74 -5.2 22.6 -0.764 -0.03
02:45 1026 30.3 855 25.25 -1.2 29.9 74 -5.3 22.5 -0.781 -0.031
02:46 1026 30.3 855 25.25 -1.2 29.8 74 -5.3 22.4 -0.815 -0.032
02:47 1026 30.3 855 25.25 -1.2 29.8 74 -5.3 22.4 -0.854 -0.034
02:48 1026 30.3 855 25.25 -1.3 29.7 74 -5.3 22.5 -0.849 -0.033
02:49 1026 30.3 855 25.25 -1.3 29.6 74 -5.3 22.5 -0.922 -0.036
02:50 1026 30.3 855 25.25 -1.4 29.5 75 -5.4 22.4 -1.002 -0.039
02:51 1026 30.3 855 25.25 -1.5 29.3 75 -5.3 22.4 -1.081 -0.043
02:52 1026 30.3 855 25.25 -1.6 29.2 75 -5.4 22.2 -1.166 -0.046
02:53 1026 30.3 855 25.25 -1.6 29.1 75 -5.5 22.2 -1.211 -0.048
02:54 1026 30.3 855 25.25 -1.7 29 75 -5.5 22 -1.234 -0.049
02:55 1026 30.3 855 25.25 -1.7 28.9 75 -5.5 22.1 -1.279 -0.05
02:56 1026 30.3 855 25.25 -1.8 28.8 75 -5.6 22 -1.33 -0.052
02:57 1026 30.3 855 25.25 -1.8 28.7 75 -5.7 21.8 -1.398 -0.055
02:58 1026 30.3 855 25.25 -1.8 28.7 75 -5.7 21.7 -1.409 -0.055
02:59 1026 30.3 855 25.25 -1.8 28.7 74 -5.8 21.6 -1.409 -0.055
03:00 1026 30.3 855 25.25 -1.8 28.8 73 -5.9 21.3 -1.415 -0.056
03:01 1026 30.3 855 25.25 -1.7 28.9 73 -5.9 21.4 -1.381 -0.054
03:02 1026 30.3 855 25.25 -1.8 28.7 73 -6.1 21.1 -1.392 -0.055
03:03 1026 30.3 855 25.25 -1.9 28.6 73 -6.1 21 -1.5 -0.059
03:04 1026 30.3 855 25.25 -1.9 28.5 73 -6.2 20.9 -1.562 -0.061
03:05 1026 30.3 855 25.25 -2 28.5 73 -6.2 20.9 -1.596 -0.063
03:06 1026 30.3 855 25.25 -2 28.4 73 -6.2 20.8 -1.591 -0.063
03:07 1026 30.3 855 25.25 -1.9 28.5 73 -6.2 20.8 -1.579 -0.062
03:08 1026 30.3 855 25.25 -2 28.5 73 -6.2 20.8 -1.574 -0.062
03:09 1026 30.3 855 25.25 -2 28.3 73 -6.2 20.8 -1.602 -0.063
03:10 1026 30.3 855 25.25 -2 28.4 73 -6.2 20.9 -1.636 -0.064
03:11 1026 30.3 855 25.25 -2 28.3 73 -6.2 20.9 -1.693 -0.067
03:12 1026 30.3 855 25.25 -2.1 28.2 74 -6.2 20.9 -1.721 -0.068
03:13 1026 30.3 855 25.25 -2 28.4 73 -6.2 20.8 -1.676 -0.066
03:14 1026 30.3 855 25.25 -2 28.4 74 -6.1 21 -1.608 -0.063
03:15 1026 30.3 855 25.25 -2 28.3 74 -6.1 21.1 -1.602 -0.063
03:16 1026 30.3 855 25.25 -2.2 28.1 74 -6.1 21 -1.715 -0.068
03:17 1026 30.3 855 25.25 -2.2 28 75 -6.1 21 -1.806 -0.071
03:18 1026 30.3 855 25.25 -2.3 27.8 75 -6.1 21 -1.902 -0.075
03:19 1026 30.3 855 25.25 -2.4 27.8 75 -6.1 20.9 -1.941 -0.076
03:20 1026 30.3 855 25.25 -2.4 27.7 75 -6.2 20.9 -1.986 -0.078
03:21 1026 30.3 855 25.25 -2.3 27.8 75 -6.2 20.8 -1.986 -0.078
03:22 1026 30.3 855 25.25 -2.3 27.9 74 -6.3 20.7 -1.951 -0.077
03:23 1026 30.3 855 25.25 -2.1 28.2 73 -6.3 20.7 -1.792 -0.071
03:24 1026 30.3 855 25.25 -2 28.4 73 -6.3 20.7 -1.651 -0.065
03:25 1026 30.3 855 25.25 -1.9 28.5 72 -6.3 20.7 -1.565 -0.062
03:26 1026 30.3 855 25.25 -1.9 28.7 72 -6.3 20.7 -1.542 -0.061
03:27 1026 30.3 855 25.25 -1.9 28.6 72 -6.4 20.6 -1.514 -0.06
03:28 1026 30.3 855 25.25 -1.8 28.7 71 -6.4 20.5 -1.513 -0.06
03:29 1026 30.3 855 25.25 -1.9 28.7 71 -6.5 20.4 -1.485 -0.058
03:30 1026 30.3 855 25.25 -1.8 28.7 71 -6.4 20.4 -1.474 -0.058
03:31 1026 30.3 855 25.25 -1.8 28.8 70 -6.4 20.4 -1.411 -0.056
03:32 1026 30.3 855 25.25 -1.8 28.8 71 -6.5 20.4 -1.411 -0.056
03:33 1026 30.3 855 25.25 -1.8 28.8 71 -6.4 20.4 -1.399 -0.055
03:34 1026 30.3 855 25.25 -1.9 28.7 71 -6.4 20.4 -1.478 -0.058
03:35 1026 30.3 855 25.25 -1.9 28.6 71 -6.4 20.5 -1.518 -0.06
03:36 1026 30.3 855 25.25 -2 28.5 72 -6.4 20.5 -1.569 -0.062
03:37 1026 30.3 855 25.25 -2 28.3 72 -6.4 20.5 -1.62 -0.064
03:38 1026 30.3 855 25.25 -2.1 28.2 73 -6.3 20.6 -1.71 -0.067
03:39 1026 30.3 855 25.25 -2.2 28 74 -6.3 20.7 -1.828 -0.072
03:40 1026 30.3 855 25.25 -2.3 27.9 75 -6.2 20.9 -1.856 -0.073
03:41 1026 30.3 855 25.25 -2.2 28 75 -6 21.2 -1.856 -0.073
03:42 1026 30.3 855 25.25 -2.1 28.2 75 -6 21.3 -1.731 -0.068
03:43 1026 30.3 855 25.25 -1.9 28.6 74 -5.8 21.5 -1.539 -0.061
03:44 1026 30.3 855 25.25 -1.8 28.8 74 -5.9 21.4 -1.414 -0.056
03:45 1026 30.3 855 25.25 -1.7 29 73 -5.9 21.4 -1.306 -0.051
03:46 1026 30.3 855 25.25 -1.5 29.2 72 -5.9 21.3 -1.18 -0.046
03:47 1026 30.3 855 25.25 -1.4 29.4 71 -5.9 21.3 -1.039 -0.041
03:48 1026 30.3 855 25.25 -1.4 29.5 71 -5.9 21.4 -0.993 -0.039
03:49 1026 30.3 855 25.25 -1.4 29.5 71 -5.9 21.3 -0.947 -0.037
03:50 1026 30.3 855 25.25 -1.3 29.6 71 -5.9 21.3 -0.958 -0.038
03:51 1026 30.3 855 25.25 -1.3 29.7 71 -5.9 21.4 -0.89 -0.035
03:52 1026 30.3 855 25.25 -1.3 29.7 71 -5.9 21.3 -0.861 -0.034
03:53 1026 30.3 855 25.25 -1.3 29.7 71 -5.8 21.5 -0.873 -0.034
03:54 1026 30.3 855 25.25 -1.3 29.6 70 -6.1 21 -0.923 -0.036
03:55 1026 30.3 855 25.25 -1.3 29.7 71 -5.9 21.4 -0.866 -0.034
03:56 1026 30.3 855 25.25 -1.3 29.7 70 -6.1 21 -0.849 -0.033
03:57 1026 30.3 855 25.25 -1.3 29.7 70 -6.1 21.1 -0.849 -0.033
03:58 1026 30.3 855 25.25 -1.2 29.8 70 -6 21.3 -0.826 -0.033
03:59 1026 30.3 855 25.25 -1.2 29.8 70 -6 21.1 -0.809 -0.032
04:00 1026 30.3 855 25.25 -1.2 29.9 70 -6 21.3 -0.752 -0.03
04:01 1026 30.3 855 25.25 -1.2 29.9 70 -6 21.3 -0.775 -0.031
04:02 1026 30.3 855 25.25 -1.2 29.9 71 -5.9 21.4 -0.792 -0.031
04:03 1026 30.3 855 25.25 -1.3 29.7 72 -5.8 21.6 -0.803 -0.032
04:04 1026 30.3 855 25.25 -1.4 29.5 72 -5.7 21.7 -0.927 -0.036
04:05 1026 30.3 855 25.25 -1.5 29.4 73 -5.8 21.6 -1.041 -0.041
04:06 1026 30.3 855 25.25 -1.6 29.2 73 -5.7 21.7 -1.131 -0.045
04:07 1026 30.3 855 25.25 -1.6 29.1 73 -5.9 21.4 -1.193 -0.047
04:08 1026 30.3 855 25.25 -1.6 29.1 73 -5.9 21.3 -1.193 -0.047
04:09 1026 30.3 855 25.25 -1.6 29 73 -5.9 21.4 -1.256 -0.049
04:10 1026 30.3 855 25.25 -1.7 28.9 73 -5.9 21.3 -1.301 -0.051
04:11 1026 30.3 855 25.25 -1.7 28.9 73 -5.9 21.3 -1.318 -0.052
04:12 1026 30.3 855 25.25 -1.7 29 73 -5.9 21.4 -1.346 -0.053
04:13 1026 30.3 855 25.25 -1.7 28.9 73 -5.9 21.3 -1.306 -0.051
04:14 1026 30.3 855 25.25 -1.7 28.9 73 -6 21.2 -1.284 -0.051
04:15 1026 30.3 855 25.25 -1.7 29 72 -6 21.2 -1.267 -0.05
04:16 1026 30.3 855 25.25 -1.7 28.9 73 -6 21.2 -1.312 -0.052
04:17 1026 30.3 855 25.25 -1.8 28.8 73 -6 21.2 -1.318 -0.052
04:18 1026 30.3 855 25.25 -1.8 28.7 73 -6 21.3 -1.346 -0.053
04:19 1026 30.3 855 25.25 -1.8 28.7 73 -6 21.1 -1.419 -0.056
04:20 1026 30.3 855 25.25 -1.9 28.6 73 -6.1 21.1 -1.476 -0.058
04:21 1026 30.3 855 25.25 -1.9 28.6 73 -6 21.1 -1.482 -0.058
04:22 1026 30.3 855 25.25 -1.9 28.6 74 -6 21.2 -1.504 -0.059
04:23 1026 30.3 855 25.25 -2 28.4 74 -6 21.1 -1.561 -0.061
04:24 1026 30.3 855 25.25 -2.1 28.2 74 -6.2 20.9 -1.663 -0.065
04:25 1026 30.3 855 25.25 -2.1 28.2 74 -6.2 20.8 -1.725 -0.068
04:26 1026 30.3 855 25.25 -2.2 28.1 74 -6.2 20.8 -1.748 -0.069
04:27 1026 30.3 855 25.25 -2.2 28 74 -6.3 20.6 -1.771 -0.07
04:28 1026 30.3 855 25.25 -2.2 28.1 73 -6.3 20.6 -1.776 -0.07
04:29 1026 30.3 855 25.25 -2.2 28 74 -6.3 20.6 -1.776 -0.07
04:30 1026 30.3 855 25.25 -2.2 28 73 -6.4 20.5 -1.861 -0.073
04:31 1026 30.3 855 25.25 -2.2 28 74 -6.3 20.7 -1.81 -0.071
04:32 1026 30.3 855 25.25 -2.2 28 74 -6.3 20.7 -1.805 -0.071
04:33 1026 30.3 855 25.25 -2.3 27.9 74 -6.2 20.8 -1.884 -0.074
04:34 1026 30.3 855 25.25 -2.3 27.8 74 -6.3 20.7 -1.946 -0.077
04:35 1026 30.3 855 25.25 -2.4 27.8 75 -6.2 20.8 -1.963 -0.077
04:36 1026 30.3 855 25.25 -2.4 27.7 75 -6.2 20.8 -1.929 -0.076
04:37 1026 30.3 855 25.25 -2.3 27.8 75 -6.2 20.9 -1.912 -0.075
04:38 1026 30.3 855 25.25 -2.3 27.8 76 -6.1 21.1 -1.889 -0.074
04:39 1026 30.3 855 25.25 -2.4 27.6 75 -6.2 20.8 -1.969 -0.078
04:40 1026 30.3 855 25.25 -2.5 27.5 75 -6.3 20.7 -2.071 -0.082
04:41 1026 30.3 855 25.25 -2.6 27.4 76 -6.3 20.7 -2.093 -0.082
04:42 1026 30.3 855 25.25 -2.6 27.3 76 -6.3 20.6 -2.184 -0.086
04:43 1026 30.3 855 25.25 -2.6 27.4 75 -6.3 20.6 -2.139 -0.084
04:44 1026 30.3 855 25.25 -2.5 27.4 76 -6.2 20.8 -2.144 -0.084
04:45 1026 30.3 855 25.25 -2.6 27.3 76 -6.3 20.7 -2.178 -0.086
04:46 1026 30.3 855 25.25 -2.7 27.2 76 -6.3 20.7 -2.246 -0.088
04:47 1026 30.3 855 25.25 -2.6 27.2 77 -6.2 20.8 -2.235 -0.088
04:48 1026 30.3 855 25.25 -2.7 27.2 77 -6.1 21 -2.258 -0.089
04:49 1026 30.3 855 25.25 -2.7 27.2 78 -6.1 21.1 -2.235 -0.088
04:50 1026 30.3 855 25.25 -2.6 27.3 77 -6.1 21 -2.218 -0.087
04:51 1026 30.3 855 25.25 -2.5 27.4 77 -6 21.2 -2.105 -0.083
04:52 1026 30.3 855 25.25 -2.4 27.7 77 -5.9 21.4 -1.98 -0.078
04:53 1026 30.3 855 25.25 -2.4 27.8 76 -5.9 21.3 -1.918 -0.076
04:54 1026 30.3 855 25.25 -2.3 27.8 76 -5.9 21.3 -1.912 -0.075
04:55 1026 30.3 855 25.25 -2.2 28 77 -5.8 21.6 -1.81 -0.071
04:56 1026 30.3 855 25.25 -2.2 28.1 76 -5.8 21.6 -1.753 -0.069
04:57 1026 30.3 855 25.25 -2.1 28.2 75 -6 21.3 -1.719 -0.068
04:58 1026 30.3 855 25.25 -2 28.3 75 -5.8 21.5 -1.651 -0.065
04:59 1026 30.3 856 25.28 -2 28.3 75 -5.8 21.5 -1.634 -0.064
05:00 1026 30.3 855 25.25 -2.1 28.3 76 -5.8 21.5 -1.64 -0.065
05:01 1026 30.3 855 25.25 -2.1 28.3 75 -5.8 21.5 -1.64 -0.065
05:02 1026 30.3 855 25.25 -2 28.4 75 -5.8 21.5 -1.595 -0.063
05:03 1026 30.3 855 25.25 -1.9 28.5 75 -5.9 21.4 -1.527 -0.06
05:04 1026 30.3 855 25.25 -1.9 28.7 73 -6 21.2 -1.447 -0.057
05:05 1026 30.3 855 25.25 -1.8 28.8 74 -5.8 21.5 -1.362 -0.054
05:06 1026 30.3 855 25.25 -1.8 28.8 73 -6 21.3 -1.368 -0.054
05:07 1026 30.3 856 25.28 -1.7 28.9 72 -6.1 21.1 -1.328 -0.052
05:08 1026 30.3 856 25.28 -1.6 29.1 72 -6 21.3 -1.226 -0.048
05:09 1026 30.3 856 25.28 -1.5 29.2 71 -6.1 21 -1.147 -0.045
05:10 1026 30.3 856 25.28 -1.4 29.4 71 -6 21.2 -1.051 -0.041
05:11 1026 30.3 856 25.28 -1.3 29.6 72 -5.7 21.7 -0.971 -0.038
05:12 1026 30.3 856 25.28 -1.4 29.4 73 -5.6 21.8 -0.988 -0.039
05:13 1026 30.3 856 25.28 -1.5 29.3 73 -5.8 21.5 -1.085 -0.043
05:14 1026 30.3 856 25.28 -1.5 29.3 73 -5.8 21.6 -1.09 -0.043
05:15 1026 30.3 856 25.28 -1.5 29.3 73 -5.7 21.7 -1.045 -0.041
05:16 1026 30.3 856 25.28 -1.5 29.3 72 -5.9 21.3 -1.107 -0.044
05:17 1026 30.3 856 25.28 -1.4 29.4 73 -5.8 21.6 -1.085 -0.043
05:18 1026 30.3 856 25.28 -1.5 29.3 73 -5.7 21.7 -1.09 -0.043
05:19 1026 30.3 856 25.28 -1.5 29.2 73 -5.7 21.7 -1.124 -0.044
05:20 1026 30.3 856 25.28 -1.6 29.2 73 -5.8 21.6 -1.187 -0.047
05:21 1026 30.3 856 25.28 -1.6 29.1 74 -5.7 21.7 -1.187 -0.047
05:22 1026 30.3 856 25.28 -1.7 29 73 -5.8 21.5 -1.226 -0.048
05:23 1026 30.3 856 25.28 -1.7 29 74 -5.8 21.6 -1.277 -0.05
05:24 1026 30.3 856 25.28 -1.7 28.9 74 -5.8 21.5 -1.34 -0.053
05:25 1026 30.3 856 25.28 -1.8 28.8 73 -5.9 21.4 -1.357 -0.053
05:26 1026 30.3 856 25.28 -1.8 28.8 73 -5.9 21.4 -1.391 -0.055
05:27 1027 30.33 856 25.28 -1.8 28.8 74 -5.9 21.4 -1.402 -0.055
05:28 1027 30.33 856 25.28 -1.9 28.6 74 -5.9 21.4 -1.504 -0.059
05:29 1027 30.33 856 25.28 -2 28.4 74 -6 21.2 -1.561 -0.061
05:30 1027 30.33 856 25.28 -2 28.3 75 -6 21.2 -1.606 -0.063
05:31 1027 30.33 856 25.28 -2.1 28.3 74 -6 21.2 -1.674 -0.066
05:32 1027 30.33 856 25.28 -2 28.4 74 -6 21.2 -1.629 -0.064
05:33 1027 30.33 856 25.28 -2 28.4 74 -5.9 21.3 -1.578 -0.062
05:34 1027 30.33 856 25.28 -1.9 28.5 74 -5.9 21.3 -1.504 -0.059
05:35 1027 30.33 856 25.28 -1.9 28.6 73 -6 21.1 -1.487 -0.059
05:36 1027 30.33 856 25.28 -1.8 28.8 73 -6 21.2 -1.374 -0.054
05:37 1027 30.33 856 25.28 -1.7 28.9 73 -6 21.2 -1.351 -0.053
05:38 1027 30.33 856 25.28 -1.8 28.8 73 -6 21.1 -1.334 -0.053
05:39 1027 30.33 856 25.28 -1.7 28.9 73 -6 21.1 -1.379 -0.054
05:40 1027 30.33 856 25.28 -1.7 28.9 73 -6 21.2 -1.362 -0.054
05:41 1027 30.33 856 25.28 -1.7 29 73 -6 21.2 -1.311 -0.052
05:42 1027 30.33 856 25.28 -1.7 28.9 72 -6 21.2 -1.311 -0.052
05:43 1027 30.33 856 25.28 -1.8 28.8 73 -6.1 21.1 -1.3 -0.051
05:44 1027 30.33 856 25.28 -1.7 28.9 73 -6 21.3 -1.351 -0.053
05:45 1027 30.33 856 25.28 -1.8 28.8 73 -5.9 21.3 -1.357 -0.053
05:46 1027 30.33 856 25.28 -1.9 28.7 74 -6 21.3 -1.396 -0.055
05:47 1027 30.33 856 25.28 -1.9 28.7 74 -5.9 21.4 -1.442 -0.057
05:48 1027 30.33 856 25.28 -1.9 28.5 74 -5.9 21.4 -1.476 -0.058
05:49 1027 30.33 856 25.28 -1.9 28.6 75 -5.9 21.5 -1.532 -0.06
05:50 1027 30.33 856 25.28 -1.9 28.6 74 -5.9 21.4 -1.532 -0.06
05:51 1027 30.33 856 25.28 -1.9 28.6 74 -5.9 21.4 -1.498 -0.059
05:52 1027 30.33 856 25.28 -1.9 28.7 74 -5.9 21.4 -1.453 -0.057
05:53 1027 30.33 856 25.28 -1.8 28.7 74 -5.8 21.6 -1.425 -0.056
05:54 1027 30.33 856 25.28 -1.8 28.8 75 -5.7 21.8 -1.402 -0.055
05:55 1027 30.33 856 25.28 -1.8 28.7 75 -5.8 21.6 -1.413 -0.056
05:56 1027 30.33 856 25.28 -1.8 28.7 75 -5.7 21.8 -1.391 -0.055
05:57 1027 30.33 856 25.28 -1.8 28.7 75 -5.7 21.7 -1.408 -0.055
05:58 1027 30.33 856 25.28 -1.7 28.9 75 -5.6 21.9 -1.379 -0.054
05:59 1027 30.33 856 25.28 -1.8 28.8 75 -5.7 21.8 -1.345 -0.053
06:00 1027 30.33 856 25.28 -1.7 28.9 75 -5.6 21.9 -1.311 -0.052
06:01 1027 30.33 856 25.28 -1.7 28.9 75 -5.5 22 -1.294 -0.051
06:02 1027 30.33 856 25.28 -1.7 28.9 75 -5.6 22 -1.306 -0.051
06:03 1027 30.33 856 25.28 -1.7 29 75 -5.5 22 -1.289 -0.051
06:04 1027 30.33 856 25.28 -1.6 29 74 -5.7 21.8 -1.238 -0.049
06:05 1027 30.33 856 25.28 -1.6 29.2 74 -5.6 21.8 -1.181 -0.046
06:06 1027 30.33 856 25.28 -1.4 29.4 74 -5.5 22.1 -1.068 -0.042
06:07 1027 30.33 856 25.28 -1.4 29.5 74 -5.5 22.1 -1.005 -0.04
06:08 1027 30.33 856 25.28 -1.3 29.6 74 -5.4 22.3 -0.92 -0.036
06:09 1027 30.33 856 25.28 -1.2 29.8 72 -5.7 21.7 -0.881 -0.035
06:10 1027 30.33 856 25.28 -1.1 30 71 -5.7 21.8 -0.75 -0.03
06:11 1027 30.33 856 25.28 -1 30.2 70 -5.7 21.7 -0.609 -0.024
06:12 1027 30.33 856 25.28 -0.9 30.4 69 -5.8 21.6 -0.535 -0.021
06:13 1027 30.33 856 25.28 -0.8 30.5 69 -5.7 21.7 -0.427 -0.017
06:14 1027 30.33 856 25.28 -0.7 30.7 70 -5.5 22.2 -0.348 -0.014
06:15 1027 30.33 856 25.28 -0.7 30.7 71 -5.4 22.3 -0.331 -0.013
06:16 1027 30.33 856 25.28 -0.7 30.8 70 -5.5 22 -0.286 -0.011
06:17 1027 30.33 856 25.28 -0.6 30.9 70 -5.5 22.1 -0.246 -0.01
06:18 1027 30.33 856 25.28 -0.6 31 70 -5.4 22.2 -0.184 -0.007
06:19 1027 30.33 856 25.28 -0.5 31.1 70 -5.4 22.3 -0.138 -0.005
06:20 1027 30.33 856 25.28 -0.5 31.1 70 -5.3 22.4 -0.121 -0.005
06:21 1027 30.33 856 25.28 -0.5 31.1 69 -5.5 22.1 -0.11 -0.004
06:22 1027 30.33 856 25.28 -0.5 31.1 69 -5.5 22.1 -0.087 -0.003
06:23 1027 30.33 856 25.28 -0.4 31.3 71 -5.1 22.8 -0.019 -0.001
06:24 1027 30.33 856 25.28 -0.4 31.2 71 -5.1 22.8 -0.014 -0.001
06:25 1027 30.33 856 25.28 -0.5 31.1 70 -5.3 22.5 -0.053 -0.002
06:26 1027 30.33 856 25.28 -0.4 31.2 70 -5.3 22.5 -0.053 -0.002
06:27 1027 30.33 856 25.28 -0.5 31.2 70 -5.2 22.6 -0.048 -0.002
06:28 1027 30.33 856 25.28 -0.4 31.3 70 -5.2 22.6 -0.008 -0
06:29 1027 30.33 856 25.28 -0.4 31.2 70 -5.3 22.4 -0.008 -0
06:30 1027 30.33 856 25.28 -0.4 31.3 70 -5.3 22.5 -0.014 -0.001
06:31 1027 30.33 856 25.28 -0.4 31.3 70 -5.2 22.7 0.049 0.002
06:32 1027 30.33 856 25.28 -0.3 31.4 70 -5.1 22.9 0.037 0.001
06:33 1027 30.33 856 25.28 -0.3 31.4 71 -4.9 23.2 0.043 0.002
06:34 1027 30.33 856 25.28 -0.4 31.3 71 -5 23 -0.008 -0
06:35 1027 30.33 856 25.28 -0.4 31.3 71 -5 23 -0.014 -0.001
06:36 1027 30.33 856 25.28 -0.5 31.1 70 -5.4 22.3 -0.099 -0.004
06:37 1027 30.33 856 25.28 -0.5 31.1 68 -5.7 21.8 -0.11 -0.004
06:38 1027 30.33 856 25.28 -0.5 31.1 67 -5.9 21.4 -0.087 -0.003
06:39 1027 30.33 856 25.28 -0.4 31.2 66 -6.1 21.1 -0.002 -0
06:40 1027 30.33 856 25.28 -0.3 31.4 65 -6.1 21 0.043 0.002
06:41 1027 30.33 856 25.28 -0.3 31.5 64 -6.2 20.9 0.1 0.004
06:42 1027 30.33 856 25.28 -0.2 31.6 65 -6 21.3 0.19 0.007
06:43 1027 30.33 856 25.28 -0.1 31.7 66 -5.8 21.6 0.241 0.009
06:44 1027 30.33 856 25.28 -0.1 31.8 65 -6 21.2 0.253 0.01
06:45 1027 30.33 856 25.28 -0.2 31.7 66 -5.7 21.7 0.281 0.011
06:46 1027 30.33 856 25.28 -0.1 31.8 67 -5.5 22.2 0.292 0.011
06:47 1027 30.33 856 25.28 -0.1 31.7 64 -6.1 21 0.274 0.011
06:48 1027 30.33 856 25.28 -0.1 31.8 66 -5.8 21.6 0.297 0.012
06:49 1027 30.33 856 25.28 -0.1 31.9 65 -5.9 21.4 0.37 0.015
06:50 1027 30.33 856 25.28 -0.1 31.9 65 -5.8 21.5 0.341 0.013
06:51 1027 30.33 856 25.28 -0.1 31.9 66 -5.8 21.6 0.364 0.014
06:52 1027 30.33 856 25.28 -0.1 31.9 64 -6 21.2 0.358 0.014
06:53 1027 30.33 856 25.28 -0.1 31.8 64 -6.1 20.9 0.363 0.014
06:54 1027 30.33 856 25.28 -0 32 67 -5.5 22.1 0.368 0.014
06:55 1027 30.33 856 25.28 -0.1 31.9 65 -5.9 21.4 0.38 0.015
06:56 1027 30.33 856 25.28 -0 32 65 -5.8 21.6 0.379 0.015
06:57 1027 30.33 856 25.28 -0 32 64 -6 21.1 0.39 0.015
06:58 1027 30.33 856 25.28 -0 32 64 -6 21.1 0.396 0.016
06:59 1027 30.33 856 25.28 0 32 65 -5.9 21.4 0.441 0.017
07:00 1027 30.33 857 25.31 0 32.1 65 -5.7 21.7 0.446 0.018
07:01 1027 30.33 857 25.31 0 32.1 66 -5.6 21.9 0.492 0.019
07:02 1027 30.33 857 25.31 0 32.1 64 -5.9 21.4 0.48 0.019
07:03 1027 30.33 857 25.31 0 32 66 -5.6 21.9 0.457 0.018
07:04 1027 30.33 857 25.31 0 32.1 65 -5.8 21.6 0.469 0.018
07:05 1027 30.33 857 25.31 0 32.1 66 -5.6 22 0.474 0.019
07:06 1027 30.33 857 25.31 0 32.1 68 -5.1 22.8 0.491 0.019
07:07 1027 30.33 857 25.31 0 32.1 69 -5.1 22.9 0.485 0.019
07:08 1027 30.33 857 25.31 0 32.1 69 -5 23 0.462 0.018
07:09 1027 30.33 857 25.31 0 32.1 67 -5.3 22.4 0.474 0.019
07:10 1027 30.33 857 25.31 0 32.1 68 -5.1 22.8 0.479 0.019
07:11 1027 30.33 857 25.31 0 32.1 69 -5 23 0.495 0.019
07:12 1027 30.33 857 25.31 0 32.1 68 -5.1 22.8 0.466 0.018
07:13 1027 30.33 857 25.31 0 32 70 -4.8 23.3 0.483 0.019
07:14 1027 30.33 857 25.31 0.1 32.1 70 -4.8 23.4 0.505 0.02
07:15 1027 30.33 857 25.31 0.1 32.1 72 -4.5 23.9 0.539 0.021
07:16 1027 30.33 857 25.31 0.1 32.2 71 -4.5 23.8 0.572 0.023
07:17 1027 30.33 857 25.31 0.1 32.3 70 -4.6 23.7 0.583 0.023
07:18 1027 30.33 857 25.31 0.1 32.3 70 -4.7 23.5 0.611 0.024
07:19 1027 30.33 857 25.31 0.2 32.4 69 -4.8 23.4 0.634 0.025
07:20 1027 30.33 857 25.31 0.2 32.4 71 -4.4 24.1 0.679 0.027
07:21 1027 30.33 857 25.31 0.3 32.5 68 -4.9 23.2 0.73 0.029
07:22 1027 30.33 857 25.31 0.3 32.6 65 -5.4 22.3 0.746 0.029
07:23 1027 30.33 857 25.31 0.4 32.7 64 -5.5 22 0.825 0.032
07:24 1027 30.33 857 25.31 0.4 32.8 65 -5.4 22.3 0.831 0.033
07:25 1027 30.33 857 25.31 0.5 32.8 66 -5.1 22.8 0.865 0.034
07:26 1027 30.33 857 25.31 0.5 32.9 65 -5.3 22.5 0.904 0.036
07:27 1027 30.33 857 25.31 0.5 33 67 -4.9 23.2 0.983 0.039
07:28 1027 30.33 857 25.31 0.6 33.1 67 -4.8 23.3 1.057 0.042
07:29 1027 30.33 857 25.31 0.7 33.2 65 -5.1 22.8 1.068 0.042
07:30 1027 30.33 857 25.31 0.7 33.2 63 -5.5 22 1.102 0.043
07:31 1027 30.33 857 25.31 0.6 33.2 61 -6 21.3 1.102 0.043
07:32 1027 30.33 857 25.31 0.7 33.2 63 -5.7 21.8 1.09 0.043
07:33 1027 30.33 857 25.31 0.7 33.3 66 -4.9 23.1 1.09 0.043
07:34 1028 30.36 857 25.31 0.7 33.3 65 -5.1 22.9 1.13 0.044
07:35 1028 30.36 857 25.31 0.7 33.3 65 -5.1 22.9 1.181 0.046
07:36 1028 30.36 857 25.31 0.7 33.3 65 -5 23 1.158 0.046
07:37 1028 30.36 857 25.31 0.7 33.3 61 -6 21.1 1.192 0.047
07:38 1028 30.36 857 25.31 0.8 33.4 63 -5.6 21.9 1.152 0.045
07:39 1028 30.36 857 25.31 0.8 33.4 62 -5.6 21.9 1.197 0.047
07:40 1028 30.36 857 25.31 0.8 33.4 65 -5.2 22.7 1.214 0.048
07:41 1028 30.36 857 25.31 0.8 33.4 66 -4.9 23.2 1.248 0.049
07:42 1028 30.36 857 25.31 0.8 33.5 65 -5 23 1.237 0.049
07:43 1028 30.36 857 25.31 0.8 33.5 66 -4.7 23.5 1.282 0.05
07:44 1028 30.36 857 25.31 0.8 33.5 65 -5.1 22.9 1.271 0.05
07:45 1028 30.36 857 25.31 0.8 33.5 66 -4.9 23.2 1.265 0.05
07:46 1028 30.36 857 25.31 0.9 33.6 65 -4.9 23.2 1.293 0.051
07:47 1028 30.36 857 25.31 0.9 33.6 66 -4.8 23.3 1.31 0.052
07:48 1028 30.36 857 25.31 0.9 33.6 64 -5.1 22.8 1.344 0.053
07:49 1028 30.36 857 25.31 0.9 33.6 63 -5.3 22.4 1.321 0.052
07:50 1028 30.36 857 25.31 1 33.7 64 -5.1 22.9 1.355 0.053
07:51 1028 30.36 857 25.31 1 33.7 62 -5.5 22.1 1.384 0.054
07:52 1028 30.36 857 25.31 1 33.8 64 -5.1 22.8 1.446 0.057
07:53 1028 30.36 857 25.31 1 33.9 64 -5.1 22.8 1.463 0.058
07:54 1028 30.36 857 25.31 1.1 33.9 64 -4.9 23.2 1.52 0.06
07:55 1028 30.36 857 25.31 1.1 33.9 65 -4.7 23.6 1.548 0.061
07:56 1028 30.36 857 25.31 1.2 34.1 63 -5.1 22.9 1.559 0.061
07:57 1028 30.36 857 25.31 1.2 34.1 62 -5.4 22.3 1.599 0.063
07:58 1028 30.36 857 25.31 1.2 34.1 63 -5.2 22.7 1.599 0.063
07:59 1028 30.36 857 25.31 1.2 34.2 62 -5.3 22.4 1.627 0.064
08:00 1028 30.36 857 25.31 1.2 34.2 62 -5.2 22.7 1.639 0.065
08:01 1028 30.36 857 25.31 1.2 34.2 63 -5 22.9 1.695 0.067
08:02 1028 30.36 857 25.31 1.2 34.2 60 -5.8 21.6 1.684 0.066
08:03 1028 30.36 857 25.31 1.3 34.3 61 -5.3 22.4 1.689 0.066
08:04 1028 30.36 857 25.31 1.3 34.3 61 -5.4 22.3 1.701 0.067
08:05 1028 30.36 857 25.31 1.3 34.4 62 -5.2 22.7 1.757 0.069
08:06 1028 30.36 857 25.31 1.3 34.4 62 -5.1 22.8 1.763 0.069
08:07 1028 30.36 857 25.31 1.4 34.4 62 -5.1 22.8 1.803 0.071
08:08 1028 30.36 857 25.31 1.4 34.5 64 -4.7 23.5 1.848 0.073
08:09 1028 30.36 857 25.31 1.5 34.6 64 -4.6 23.8 1.882 0.074
08:10 1028 30.36 857 25.31 1.5 34.7 62 -5 23.1 1.956 0.077
08:11 1028 30.36 857 25.31 1.5 34.7 59 -5.6 21.9 1.927 0.076
08:12 1028 30.36 857 25.31 1.5 34.7 61 -5.1 22.8 1.915 0.075
08:13 1028 30.36 857 25.31 1.5 34.7 62 -4.9 23.1 1.937 0.076
08:14 1028 30.36 857 25.31 1.6 34.8 61 -5.3 22.5 2.005 0.079
08:15 1028 30.36 857 25.31 1.6 34.8 60 -5.4 22.3 1.993 0.078
08:16 1028 30.36 857 25.31 1.5 34.8 62 -5 22.9 1.97 0.078
08:17 1028 30.36 857 25.31 1.6 34.8 61 -5.1 22.8 1.953 0.077
08:18 1028 30.36 857 25.31 1.6 34.9 61 -5.1 22.8 2.01 0.079
08:19 1028 30.36 857 25.31 1.6 35 61 -5.1 22.8 2.044 0.08
08:20 1028 30.36 857 25.31 1.7 35 59 -5.5 22.1 2.09 0.082
08:21 1028 30.36 857 25.31 1.7 35 61 -5 23 2.106 0.083
08:22 1028 30.36 857 25.31 1.7 35 59 -5.4 22.2 2.134 0.084
08:23 1028 30.36 857 25.31 1.8 35.2 61 -4.9 23.2 2.151 0.085
08:24 1028 30.36 857 25.31 1.8 35.2 63 -4.6 23.7 2.207 0.087
08:25 1028 30.36 857 25.31 1.8 35.3 62 -4.8 23.4 2.286 0.09
08:26 1028 30.36 857 25.31 1.9 35.4 60 -5.1 22.7 2.297 0.09
08:27 1028 30.36 857 25.31 1.9 35.4 59 -5.2 22.6 2.302 0.091
08:28 1028 30.36 857 25.31 1.8 35.3 59 -5.3 22.4 2.274 0.09
08:29 1028 30.36 857 25.31 1.9 35.4 61 -4.8 23.4 2.285 0.09
08:30 1028 30.36 857 25.31 1.9 35.4 60 -5.1 22.8 2.358 0.093
08:31 1028 30.36 857 25.31 1.9 35.4 61 -4.8 23.4 2.307 0.091
08:32 1028 30.36 857 25.31 1.9 35.4 58 -5.5 22.1 2.302 0.091
08:33 1028 30.36 857 25.31 1.9 35.4 61 -4.8 23.3 2.279 0.09
08:34 1028 30.36 857 25.31 1.9 35.4 62 -4.7 23.6 2.33 0.092
08:35 1028 30.36 857 25.31 2 35.5 63 -4.3 24.3 2.386 0.094
08:36 1028 30.36 857 25.31 2.1 35.7 60 -4.9 23.3 2.475 0.097
08:37 1028 30.36 857 25.31 2 35.7 58 -5.4 22.2 2.464 0.097
08:38 1028 30.36 857 25.31 2 35.6 61 -4.8 23.3 2.367 0.093
08:39 1028 30.36 857 25.31 2 35.6 61 -4.8 23.4 2.372 0.093
08:40 1028 30.36 857 25.31 2 35.6 60 -4.9 23.2 2.428 0.096
08:41 1028 30.36 857 25.31 2 35.7 61 -4.7 23.5 2.479 0.098
08:42 1028 30.36 857 25.31 2.1 35.7 62 -4.4 24.1 2.484 0.098
08:43 1028 30.36 857 25.31 2.1 35.7 61 -4.6 23.7 2.484 0.098
08:44 1028 30.36 857 25.31 2.1 35.7 61 -4.7 23.5 2.416 0.095
08:45 1028 30.36 857 25.31 2 35.7 63 -4.4 24.1 2.466 0.097
08:46 1028 30.36 857 25.31 2 35.6 59 -5.2 22.7 2.443 0.096
08:47 1028 30.36 857 25.31 2 35.6 60 -4.9 23.2 2.403 0.095
08:48 1028 30.36 857 25.31 2 35.5 62 -4.5 23.9 2.42 0.095
08:49 1028 30.36 857 25.31 2 35.6 57 -5.6 22 2.386 0.094
08:50 1028 30.36 857 25.31 1.9 35.5 59 -5.2 22.7 2.374 0.093
08:51 1028 30.36 857 25.31 1.9 35.5 58 -5.4 22.3 2.368 0.093
08:52 1028 30.36 857 25.31 1.9 35.4 60 -5.1 22.8 2.357 0.093
08:53 1028 30.36 857 25.31 1.9 35.5 61 -4.7 23.5 2.357 0.093
08:54 1028 30.36 857 25.31 2 35.5 59 -5.3 22.4 2.374 0.093
08:55 1028 30.36 857 25.31 1.9 35.5 60 -5.1 22.7 2.34 0.092
08:56 1028 30.36 857 25.31 1.9 35.4 60 -5 23 2.339 0.092
08:57 1028 30.36 857 25.31 1.9 35.4 59 -5.4 22.3 2.351 0.093
08:58 1028 30.36 857 25.31 1.9 35.4 60 -5 23.1 2.328 0.092
08:59 1028 30.36 857 25.31 1.9 35.5 61 -4.9 23.2 2.373 0.093
09:00 1028 30.36 857 25.31 2 35.5 59 -5.2 22.6 2.413 0.095
09:01 1028 30.36 857 25.31 1.9 35.5 62 -4.6 23.7 2.407 0.095
09:02 1028 30.36 857 25.31 2 35.6 59 -5.1 22.8 2.446 0.096
09:03 1028 30.36 857 25.31 2 35.6 59 -5.1 22.8 2.429 0.096
09:04 1028 30.36 857 25.31 2 35.6 59 -5.3 22.5 2.463 0.097
09:05 1028 30.36 857 25.31 2 35.7 60 -5 23.1 2.491 0.098
09:06 1028 30.36 857 25.31 2.1 35.7 56 -5.7 21.7 2.497 0.098
09:07 1028 30.36 857 25.31 2.1 35.7 58 -5.4 22.3 2.531 0.1
09:08 1028 30.36 857 25.31 2.1 35.8 61 -4.6 23.7 2.537 0.1
09:09 1028 30.36 857 25.31 2.1 35.8 59 -5 23 2.548 0.1
09:10 1028 30.36 857 25.31 2.2 35.9 57 -5.4 22.2 2.599 0.102
09:11 1028 30.36 857 25.31 2.2 35.9 59 -5 23 2.593 0.102
09:12 1028 30.36 857 25.31 2.2 36 59 -4.9 23.1 2.695 0.106
09:13 1028 30.36 857 25.31 2.3 36.2 57 -5.2 22.6 2.78 0.109
09:14 1028 30.36 857 25.31 2.4 36.3 58 -5 23.1 2.825 0.111
09:15 1028 30.36 857 25.31 2.4 36.3 59 -4.9 23.2 2.819 0.111
09:16 1028 30.36 857 25.31 2.4 36.4 60 -4.6 23.7 2.876 0.113
09:17 1028 30.36 857 25.31 2.5 36.4 57 -5.3 22.4 2.893 0.114
09:18 1028 30.36 857 25.31 2.5 36.5 55 -5.5 22 2.933 0.115
09:19 1028 30.36 857 25.31 2.6 36.6 56 -5.3 22.5 3.012 0.119
09:20 1028 30.36 857 25.31 2.7 36.8 55 -5.6 21.9 3.119 0.123
09:21 1028 30.36 857 25.31 2.7 36.8 55 -5.5 22.1 3.136 0.123
09:22 1028 30.36 857 25.31 2.7 36.8 56 -5.3 22.5 3.091 0.122
09:23 1028 30.36 857 25.31 2.7 36.9 54 -5.7 21.8 3.148 0.124
09:24 1028 30.36 857 25.31 2.8 37 53 -6 21.3 3.21 0.126
09:25 1028 30.36 857 25.31 2.8 37 53 -5.8 21.6 3.221 0.127
09:26 1028 30.36 857 25.31 2.8 37.1 56 -5.1 22.8 3.278 0.129
09:27 1028 30.36 857 25.31 2.9 37.2 53 -5.8 21.5 3.346 0.132
09:28 1028 30.36 857 25.31 2.9 37.3 52 -6 21.2 3.374 0.133
09:29 1028 30.36 857 25.31 2.9 37.3 53 -5.7 21.7 3.397 0.134
09:30 1028 30.36 857 25.31 3 37.3 53 -5.6 21.9 3.442 0.136
09:31 1028 30.36 857 25.31 3 37.4 56 -4.8 23.3 3.47 0.137
09:32 1028 30.36 857 25.31 3.1 37.6 54 -5.4 22.2 3.56 0.14
09:33 1028 30.36 857 25.31 3.1 37.5 52 -5.7 21.7 3.543 0.139
09:34 1028 30.36 857 25.31 3 37.4 57 -4.7 23.5 3.475 0.137
09:35 1028 30.36 857 25.31 3.1 37.6 51 -6 21.2 3.583 0.141
09:36 1028 30.36 857 25.31 3.2 37.7 52 -5.7 21.7 3.577 0.141
09:37 1028 30.36 857 25.31 3.2 37.7 51 -6.1 21 3.622 0.143
09:38 1028 30.36 857 25.31 3.2 37.7 51 -5.9 21.3 3.593 0.141
09:39 1028 30.36 857 25.31 3.1 37.6 50 -6.4 20.4 3.593 0.141
09:40 1028 30.36 857 25.31 3.1 37.6 56 -4.9 23.1 3.603 0.142
09:41 1028 30.36 857 25.31 3.3 37.9 50 -6.1 21.1 3.699 0.146
09:42 1028 30.36 857 25.31 3.2 37.8 52 -5.8 21.6 3.682 0.145
09:43 1028 30.36 857 25.31 3.2 37.8 48 -6.7 20 3.631 0.143
09:44 1028 30.36 857 25.31 3.2 37.8 53 -5.5 22 3.636 0.143
09:45 1028 30.36 857 25.31 3.3 37.9 51 -6 21.2 3.727 0.147
09:46 1028 30.36 857 25.31 3.4 38.1 48 -6.5 20.3 3.811 0.15
09:47 1028 30.36 857 25.31 3.4 38.2 49 -6.4 20.6 3.856 0.152
09:48 1028 30.36 857 25.31 3.4 38.1 52 -5.5 22.1 3.89 0.153
09:49 1028 30.36 857 25.31 3.5 38.3 53 -5.2 22.7 3.94 0.155
09:50 1028 30.36 857 25.31 3.6 38.4 48 -6.4 20.5 4.03 0.159
09:51 1028 30.36 857 25.31 3.6 38.4 48 -6.4 20.5 3.973 0.156
09:52 1028 30.36 857 25.31 3.6 38.5 50 -5.9 21.4 4.011 0.158
09:53 1028 30.36 857 25.31 3.6 38.5 52 -5.4 22.2 4.056 0.16
09:54 1028 30.36 857 25.31 3.7 38.7 48 -6.4 20.5 4.158 0.164
09:55 1028 30.36 857 25.31 3.7 38.7 45 -7 19.3 4.202 0.165
09:56 1028 30.36 857 25.31 3.8 38.8 51 -5.4 22.3 4.208 0.166
09:57 1028 30.36 857 25.31 3.8 38.8 50 -5.7 21.7 4.259 0.168
09:58 1028 30.36 857 25.31 3.8 38.9 51 -5.4 22.3 4.309 0.17
09:59 1028 30.36 857 25.31 3.8 38.9 45 -7 19.3 4.275 0.168
10:00 1028 30.36 857 25.31 3.8 38.8 48 -6.2 20.9 4.235 0.167
10:01 1028 30.36 857 25.31 3.7 38.7 49 -6.1 21 4.212 0.166
10:02 1028 30.36 857 25.31 3.7 38.7 48 -6.2 20.9 4.172 0.164
10:03 1028 30.36 857 25.31 3.7 38.6 51 -5.6 21.9 4.149 0.163
10:04 1028 30.36 857 25.31 3.7 38.7 49 -6.1 21 4.172 0.164
10:05 1028 30.36 857 25.31 3.6 38.6 49 -6.1 21 4.104 0.162
10:06 1028 30.36 857 25.31 3.6 38.4 50 -6 21.2 4.002 0.158
10:07 1028 30.36 857 25.31 3.5 38.4 53 -5.2 22.6 3.979 0.157
10:08 1028 30.36 857 25.31 3.6 38.4 49 -6 21.1 3.984 0.157
10:09 1028 30.36 857 25.31 3.6 38.4 51 -5.7 21.7 3.956 0.156
10:10 1028 30.36 857 25.31 3.5 38.3 51 -5.6 21.9 3.922 0.154
10:11 1028 30.36 857 25.31 3.4 38.2 53 -5.1 22.8 3.859 0.152
10:12 1028 30.36 857 25.31 3.4 38.2 50 -5.9 21.3 3.865 0.152
10:13 1028 30.36 857 25.31 3.4 38.1 49 -6.2 20.9 3.814 0.15
10:14 1028 30.36 857 25.31 3.4 38.1 55 -4.9 23.2 3.808 0.15
10:15 1028 30.36 857 25.31 3.4 38.1 47 -6.8 19.8 3.819 0.15
10:16 1028 30.36 857 25.31 3.3 38 49 -6.4 20.4 3.791 0.149
10:17 1028 30.36 857 25.31 3.4 38.1 50 -6 21.1 3.757 0.148
10:18 1028 30.36 857 25.31 3.4 38.1 49 -6.3 20.6 3.819 0.15
10:19 1028 30.36 857 25.31 3.4 38.1 48 -6.5 20.2 3.819 0.15
10:20 1028 30.36 857 25.31 3.4 38.2 49 -6.3 20.7 3.864 0.152
10:21 1028 30.36 857 25.31 3.5 38.2 49 -6.2 20.9 3.892 0.153
10:22 1028 30.36 857 25.31 3.5 38.3 46 -7.2 19.1 3.949 0.155
10:23 1028 30.36 857 25.31 3.5 38.3 47 -6.8 19.8 3.887 0.153
10:24 1028 30.36 857 25.31 3.5 38.3 49 -6.3 20.6 3.966 0.156
10:25 1028 30.36 857 25.31 3.6 38.5 48 -6.5 20.3 4.062 0.16
10:26 1028 30.36 857 25.31 3.6 38.6 45 -7.2 19.1 4.073 0.16
10:27 1028 30.36 857 25.31 3.6 38.5 48 -6.4 20.6 4.084 0.161
10:28 1028 30.36 857 25.31 3.8 38.8 48 -6.1 21 4.22 0.166
10:29 1028 30.36 857 25.31 3.9 39 45 -6.8 19.7 4.356 0.171
10:30 1028 30.36 857 25.31 4 39.1 47 -6.3 20.7 4.452 0.175
10:31 1028 30.36 857 25.31 4 39.2 48 -5.9 21.4 4.469 0.176
10:32 1028 30.36 857 25.31 4.1 39.4 45 -6.8 19.8 4.543 0.179
10:33 1028 30.36 857 25.31 4.2 39.5 44 -7.1 19.2 4.616 0.182
10:34 1028 30.36 857 25.31 4.2 39.6 45 -6.7 19.9 4.662 0.184
10:35 1028 30.36 857 25.31 4.2 39.6 44 -7.1 19.2 4.656 0.183
10:36 1028 30.36 857 25.31 4.1 39.4 45 -6.7 20 4.588 0.181
10:37 1028 30.36 857 25.31 4.1 39.3 42 -7.7 18.1 4.497 0.177
10:38 1028 30.36 857 25.31 3.9 39.1 44 -7.3 18.8 4.356 0.171
10:39 1028 30.36 858 25.34 3.8 38.9 44 -7.3 18.8 4.282 0.169
10:40 1028 30.36 858 25.34 3.8 38.9 44 -7.5 18.5 4.248 0.167
10:41 1028 30.36 858 25.34 3.8 38.8 44 -7.3 18.9 4.254 0.167
10:42 1028 30.36 858 25.34 3.8 38.9 48 -6.1 21 4.254 0.167
10:43 1028 30.36 858 25.34 3.9 39.1 47 -6.5 20.3 4.407 0.174
10:44 1028 30.36 857 25.31 4 39.2 47 -6.4 20.4 4.514 0.178
10:45 1028 30.36 857 25.31 4.1 39.3 45 -6.9 19.6 4.531 0.178
10:46 1028 30.36 857 25.31 4.1 39.4 45 -6.9 19.6 4.56 0.18
10:47 1028 30.36 857 25.31 4.2 39.5 52 -4.7 23.5 4.656 0.183
10:48 1028 30.36 857 25.31 4.3 39.8 49 -5.6 22 4.768 0.188
10:49 1028 30.36 857 25.31 4.4 39.9 47 -5.9 21.5 4.864 0.191
10:50 1028 30.36 857 25.31 4.5 40.1 46 -6.3 20.7 4.983 0.196
10:51 1028 30.36 857 25.31 4.6 40.4 42 -7.3 18.9 5.045 0.199
10:52 1028 30.36 857 25.31 4.6 40.3 44 -6.6 20.1 5.028 0.198
10:53 1028 30.36 857 25.31 4.6 40.2 48 -5.5 22.2 5.022 0.198
10:54 1028 30.36 857 25.31 4.7 40.4 44 -6.7 20 5.112 0.201
10:55 1028 30.36 857 25.31 4.7 40.5 42 -7.1 19.3 5.185 0.204
10:56 1028 30.36 857 25.31 4.7 40.4 42 -7 19.3 5.095 0.201
10:57 1028 30.36 857 25.31 4.6 40.2 42 -7.3 18.8 4.969 0.196
10:58 1028 30.36 857 25.31 4.5 40.2 45 -6.4 20.6 4.975 0.196
10:59 1028 30.36 857 25.31 4.5 40 44 -6.6 20 4.89 0.193
11:00 1028 30.36 857 25.31 4.4 40 43 -7.1 19.2 4.872 0.192
11:01 1028 30.36 857 25.31 4.5 40.1 40 -7.8 17.9 4.929 0.194
11:02 1028 30.36 857 25.31 4.4 40 45 -6.5 20.3 4.827 0.19
11:03 1028 30.36 857 25.31 4.4 39.9 46 -6.3 20.6 4.855 0.191
11:04 1028 30.36 857 25.31 4.4 40 43 -7.1 19.2 4.883 0.192
11:05 1028 30.36 857 25.31 4.5 40 45 -6.5 20.3 4.82 0.19
11:06 1028 30.36 857 25.31 4.4 40 44 -6.9 19.6 4.882 0.192
11:07 1028 30.36 857 25.31 4.4 39.9 43 -7.2 19 4.831 0.19
11:08 1028 30.36 857 25.31 4.4 39.9 44 -6.9 19.5 4.792 0.189
11:09 1028 30.36 857 25.31 4.4 39.9 49 -5.4 22.3 4.831 0.19
11:10 1028 30.36 857 25.31 4.5 40.2 42 -7.2 19 4.978 0.196
11:11 1028 30.36 857 25.31 4.6 40.2 45 -6.2 20.8 5.006 0.197
11:12 1028 30.36 857 25.31 4.6 40.2 44 -6.6 20.2 5.023 0.198
11:13 1028 30.36 857 25.31 4.5 40.2 41 -7.7 18.2 5.017 0.198
11:14 1028 30.36 857 25.31 4.5 40.1 42 -7.4 18.7 4.966 0.196
11:15 1028 30.36 857 25.31 4.6 40.2 45 -6.3 20.7 4.989 0.196
11:16 1028 30.36 857 25.31 4.8 40.6 45 -6.3 20.6 5.181 0.204
11:17 1028 30.36 857 25.31 4.9 40.8 45 -6 21.1 5.384 0.212
11:18 1028 30.36 857 25.31 4.9 40.8 43 -6.7 20 5.395 0.212
11:19 1028 30.36 857 25.31 4.9 40.8 44 -6.5 20.3 5.361 0.211
11:20 1028 30.36 857 25.31 5 40.9 46 -5.6 22 5.399 0.213
11:21 1028 30.36 857 25.31 5.1 41.2 40 -7.3 18.8 5.608 0.221
11:22 1028 30.36 857 25.31 5.1 41.1 40 -7.4 18.6 5.518 0.217
11:23 1028 30.36 857 25.31 5 41 41 -7.3 18.9 5.415 0.213
11:24 1028 30.36 857 25.31 4.9 40.9 44 -6.5 20.3 5.324 0.21
11:25 1028 30.36 857 25.31 4.8 40.7 41 -7.2 19.1 5.273 0.208
11:26 1028 30.36 857 25.31 4.8 40.7 41 -7.4 18.6 5.244 0.206
11:27 1028 30.36 858 25.34 4.8 40.6 44 -6.5 20.3 5.233 0.206
11:28 1028 30.36 857 25.31 4.9 40.9 44 -6.3 20.7 5.385 0.212
11:29 1028 30.36 857 25.31 5 41 43 -6.6 20 5.492 0.216
11:30 1028 30.36 857 25.31 5.1 41.2 42 -6.6 20.1 5.549 0.218
11:31 1028 30.36 857 25.31 5.2 41.3 44 -6.2 20.9 5.617 0.221
11:32 1028 30.36 857 25.31 5.2 41.4 39 -7.8 17.9 5.577 0.22
11:33 1028 30.36 857 25.31 5.1 41.2 39 -7.9 17.8 5.452 0.215
11:34 1028 30.36 857 25.31 5 41 37 -8.4 17 5.362 0.211
11:35 1028 30.36 857 25.31 5 41 41 -7.2 19 5.31 0.209
11:36 1028 30.36 857 25.31 5.1 41.2 44 -6.1 21 5.474 0.216
11:37 1028 30.36 857 25.31 5.2 41.4 40 -7.2 19 5.593 0.22
11:38 1028 30.36 857 25.31 5.2 41.4 43 -6.3 20.6 5.672 0.223
11:39 1028 30.36 857 25.31 5.4 41.6 44 -5.9 21.4 5.791 0.228
11:40 1028 30.36 857 25.31 5.5 42 45 -5.5 22.1 5.989 0.236
11:41 1028 30.36 857 25.31 5.7 42.2 44 -5.6 22 6.119 0.241
11:42 1028 30.36 857 25.31 5.6 42.2 41 -6.7 19.9 6.091 0.24
11:43 1028 30.36 857 25.31 5.5 41.9 39 -7.4 18.6 5.989 0.236
11:44 1028 30.36 857 25.31 5.4 41.7 38 -7.6 18.2 5.87 0.231
11:45 1028 30.36 857 25.31 5.3 41.6 42 -6.6 20.1 5.779 0.228
11:46 1028 30.36 857 25.31 5.3 41.6 40 -7.2 19.1 5.785 0.228
11:47 1028 30.36 857 25.31 5.3 41.6 43 -6.1 21 5.773 0.227
11:48 1028 30.36 857 25.31 5.4 41.8 40 -7.2 19 5.852 0.23
11:49 1028 30.36 857 25.31 5.4 41.7 40 -7.1 19.3 5.852 0.23
11:50 1028 30.36 857 25.31 5.4 41.7 39 -7.6 18.3 5.869 0.231
11:51 1028 30.36 857 25.31 5.3 41.6 40 -7.3 18.8 5.813 0.229
11:52 1028 30.36 857 25.31 5.3 41.6 40 -7.3 18.8 5.762 0.227
11:53 1028 30.36 857 25.31 5.2 41.4 40 -7.4 18.7 5.705 0.225
11:54 1028 30.36 857 25.31 5.3 41.5 38 -7.9 17.7 5.773 0.227
11:55 1028 30.36 857 25.31 5.3 41.5 41 -6.9 19.6 5.716 0.225
11:56 1028 30.36 857 25.31 5.3 41.6 43 -6.4 20.6 5.784 0.228
11:57 1028 30.36 857 25.31 5.4 41.7 41 -6.7 20 5.801 0.228
11:58 1028 30.36 857 25.31 5.3 41.6 39 -7.5 18.5 5.784 0.228
11:59 1028 30.36 857 25.31 5.3 41.6 39 -7.4 18.6 5.773 0.227
12:00 1028 30.36 857 25.31 5.4 41.7 41 -7 19.5 5.863 0.231
12:01 1028 30.36 857 25.31 5.5 41.9 40 -7.1 19.2 5.993 0.236
12:02 1028 30.36 857 25.31 5.8 42.5 39 -7.2 19 6.305 0.248
12:03 1028 30.36 857 25.31 6 42.9 38 -7.3 18.8 6.554 0.258
12:04 1028 30.36 857 25.31 6 42.8 43 -5.7 21.7 6.542 0.258
12:05 1028 30.36 857 25.31 6.1 42.9 42 -5.8 21.5 6.537 0.257
12:06 1028 30.36 857 25.31 6.1 42.9 41 -6.3 20.7 6.548 0.258
12:07 1028 30.36 857 25.31 6 42.8 33 -9.2 15.5 6.418 0.253
12:08 1028 30.36 857 25.31 5.9 42.5 35 -8.4 16.8 6.356 0.25
12:09 1028 30.36 857 25.31 5.8 42.4 34 -8.8 16.1 6.237 0.246
12:10 1028 30.36 857 25.31 5.8 42.4 38 -7.4 18.6 6.203 0.244
12:11 1028 30.36 857 25.31 5.7 42.3 38 -7.7 18.2 6.157 0.242
12:12 1028 30.36 857 25.31 5.7 42.3 37 -7.8 18 6.203 0.244
12:13 1028 30.36 857 25.31 5.9 42.7 45 -5.2 22.6 6.401 0.252
12:14 1028 30.36 857 25.31 6.3 43.4 40 -6.3 20.6 6.814 0.268
12:15 1028 30.36 857 25.31 6.6 43.8 35 -7.7 18.2 7.05 0.278
12:16 1028 30.36 857 25.31 6.5 43.6 38 -6.9 19.6 6.933 0.273
12:17 1028 30.36 857 25.31 6.3 43.3 38 -6.9 19.6 6.757 0.266
12:18 1028 30.36 857 25.31 6.1 43.1 38 -7.3 18.9 6.571 0.259
12:19 1028 30.36 857 25.31 6.3 43.3 36 -7.9 17.8 6.752 0.266
12:20 1028 30.36 857 25.31 6.6 43.8 33 -8.4 16.9 7.02 0.276
12:21 1028 30.36 857 25.31 6.7 44.1 31 -9.3 15.2 7.07 0.278
12:22 1028 30.36 857 25.31 6.8 44.2 32 -8.8 16.1 6.976 0.275
12:23 1028 30.36 857 25.31 6.5 43.7 35 -7.8 18 6.773 0.267
12:24 1028 30.36 857 25.31 6.4 43.5 36 -7.7 18.1 6.778 0.267
12:25 1028 30.36 857 25.31 6.5 43.7 32 -8.8 16.1 6.902 0.272
12:26 1028 30.36 857 25.31 6.4 43.5 35 -8.1 17.5 6.885 0.271
12:27 1028 30.36 857 25.31 6.4 43.5 35 -8.1 17.5 6.839 0.269
12:28 1028 30.36 857 25.31 6.4 43.5 34 -8.4 16.8 6.867 0.27
12:29 1028 30.36 857 25.31 6.3 43.3 32 -9.1 15.7 6.731 0.265
12:30 1028 30.36 857 25.31 6.2 43.1 32 -9.3 15.3 6.611 0.26
12:31 1028 30.36 857 25.31 6 42.8 32 -9.4 15 6.498 0.256
12:32 1028 30.36 857 25.31 6 42.9 36 -8 17.6 6.436 0.253
12:33 1028 30.36 857 25.31 6.2 43.1 37 -7.6 18.4 6.621 0.261
12:34 1028 30.36 857 25.31 6.3 43.4 36 -7.9 17.9 6.75 0.266
12:35 1028 30.36 857 25.31 6.4 43.5 36 -7.5 18.4 6.841 0.269
12:36 1028 30.36 857 25.31 6.5 43.7 38 -7 19.5 6.958 0.274
12:37 1028 30.36 857 25.31 6.6 43.9 35 -7.8 18 7.07 0.278
12:38 1028 30.36 857 25.31 6.6 43.8 40 -6 21.1 6.992 0.275
12:39 1028 30.36 857 25.31 6.5 43.7 38 -6.8 19.8 6.974 0.275
12:40 1028 30.36 857 25.31 6.5 43.8 38 -6.7 20 6.985 0.275
12:41 1028 30.36 857 25.31 6.4 43.6 37 -7.1 19.3 6.877 0.271
12:42 1028 30.36 857 25.31 6.3 43.3 39 -6.7 19.9 6.718 0.264
12:43 1028 30.36 857 25.31 6.2 43.2 35 -7.9 17.7 6.678 0.263
12:44 1028 30.36 857 25.31 6.1 43.1 38 -7 19.3 6.599 0.26
12:45 1028 30.36 857 25.31 6.1 42.9 34 -8.5 16.7 6.553 0.258
12:46 1028 30.36 857 25.31 6.2 43.1 41 -6.2 20.8 6.592 0.26
12:47 1028 30.36 857 25.31 6.6 43.8 38 -6.7 19.9 7.1 0.28
12:48 1028 30.36 857 25.31 6.9 44.4 39 -6.1 21 7.38 0.291
12:49 1028 30.36 857 25.31 7 44.6 34 -7.8 18 7.38 0.291
12:50 1028 30.36 857 25.31 6.9 44.5 32 -8.6 16.5 7.39 0.291
12:51 1028 30.36 857 25.31 6.9 44.4 34 -7.8 18 7.34 0.289
12:52 1028 30.36 857 25.31 6.9 44.4 34 -7.9 17.8 7.29 0.287
12:53 1028 30.36 857 25.31 6.8 44.3 35 -7.7 18.1 7.24 0.285
12:54 1028 30.36 857 25.31 7 44.6 31 -9.1 15.6 7.45 0.293
12:55 1028 30.36 857 25.31 7.1 44.7 31 -8.9 16 7.63 0.3
12:56 1028 30.36 857 25.31 7.3 45.1 32 -8.4 16.9 7.73 0.304
12:57 1028 30.36 857 25.31 7.4 45.4 33 -7.8 18 7.91 0.311
12:58 1028 30.36 857 25.31 7.6 45.6 31 -8.3 17 8.06 0.317
12:59 1028 30.36 857 25.31 7.5 45.4 31 -8.4 16.8 7.89 0.311
13:00 1028 30.36 857 25.31 7.3 45.1 28 -9.9 14.1 7.69 0.303
13:01 1028 30.36 857 25.31 7.2 44.9 30 -9.3 15.2 7.6 0.299
13:02 1028 30.36 857 25.31 7.2 45 31 -8.9 16.1 7.69 0.303
13:03 1028 30.36 857 25.31 7.5 45.6 35 -6.8 19.7 7.99 0.315
13:04 1028 30.36 857 25.31 7.8 46 31 -8.2 17.2 8.24 0.324
13:05 1027 30.33 857 25.31 7.9 46.1 32 -7.7 18.2 8.32 0.328
13:06 1028 30.36 857 25.31 7.9 46.2 32 -7.8 17.9 8.32 0.328
13:07 1028 30.36 857 25.31 7.9 46.2 27 -9.9 14.1 8.28 0.326
13:08 1028 30.36 857 25.31 7.6 45.7 29 -9.2 15.4 8.03 0.316
13:09 1028 30.36 857 25.31 7.4 45.2 29 -9.5 15 7.77 0.306
13:10 1028 30.36 857 25.31 7.2 45 31 -8.8 16.1 7.66 0.302
13:11 1027 30.33 857 25.31 7.2 45 35 -7.1 19.3 7.67 0.302
13:12 1027 30.33 857 25.31 7.2 44.9 33 -8.2 17.3 7.62 0.3
13:13 1028 30.36 857 25.31 7.2 44.9 38 -6 21.2 7.63 0.3
13:14 1027 30.33 857 25.31 7.3 45.1 36 -6.9 19.6 7.72 0.304
13:15 1027 30.33 857 25.31 7.2 45 37 -6.4 20.5 7.66 0.302
13:16 1028 30.36 857 25.31 7.2 45 38 -6.1 21.1 7.66 0.302
13:17 1028 30.36 857 25.31 7.2 45 39 -5.7 21.7 7.69 0.303
13:18 1028 30.36 857 25.31 7.6 45.8 35 -6.8 19.7 8.07 0.318
13:19 1028 30.36 857 25.31 7.6 45.7 33 -7.5 18.4 8.05 0.317
13:20 1027 30.33 857 25.31 7.4 45.4 32 -8.3 17 7.92 0.312
13:21 1028 30.36 857 25.31 7.3 45.1 37 -6.5 20.2 7.73 0.304
13:22 1028 30.36 857 25.31 7.3 45.1 38 -6.2 20.8 7.78 0.306
13:23 1027 30.33 857 25.31 7.4 45.4 33 -7.9 17.8 7.91 0.311
13:24 1028 30.36 857 25.31 7.4 45.3 31 -8.6 16.6 7.83 0.308
13:25 1027 30.33 857 25.31 7.3 45.2 33 -7.9 17.7 7.77 0.306
13:26 1027 30.33 857 25.31 7.4 45.2 33 -7.8 17.9 7.82 0.308
13:27 1027 30.33 857 25.31 7.3 45.2 28 -9.8 14.3 7.77 0.306
13:28 1027 30.33 857 25.31 7.2 45 33 -7.9 17.7 7.63 0.3
13:29 1027 30.33 857 25.31 7.3 45.1 35 -7 19.3 7.74 0.305
13:30 1027 30.33 857 25.31 7.4 45.2 33 -8 17.5 7.79 0.307
13:31 1027 30.33 857 25.31 7.5 45.4 33 -7.7 18.1 7.92 0.312
13:32 1027 30.33 857 25.31 7.9 46.2 32 -7.7 18.1 8.38 0.33
13:33 1027 30.33 857 25.31 8.3 47 35 -6.4 20.6 8.82 0.347
13:34 1027 30.33 857 25.31 8.6 47.4 30 -7.8 17.9 9.07 0.357
13:35 1027 30.33 857 25.31 8.6 47.5 33 -6.8 19.7 9.06 0.357
13:36 1027 30.33 857 25.31 8.5 47.2 32 -7.1 19.2 8.89 0.35
13:37 1027 30.33 857 25.31 8.3 47 29 -8.6 16.5 8.79 0.346
13:38 1027 30.33 857 25.31 8.2 46.8 32 -7.4 18.8 8.68 0.342
13:39 1027 30.33 857 25.31 8.2 46.8 29 -8.9 16 8.61 0.339
13:40 1027 30.33 857 25.31 8.1 46.6 36 -5.9 21.3 8.58 0.338
13:41 1027 30.33 857 25.31 8.2 46.7 30 -8.3 17 8.58 0.338
13:42 1027 30.33 857 25.31 8 46.5 31 -8.1 17.4 8.48 0.334
13:43 1027 30.33 857 25.31 7.9 46.2 30 -8.5 16.7 8.4 0.331
13:44 1027 30.33 857 25.31 7.8 46 35 -6.6 20.1 8.29 0.326
13:45 1027 30.33 857 25.31 8 46.4 30 -8.4 16.9 8.41 0.331
13:46 1027 30.33 857 25.31 7.9 46.2 31 -8.1 17.4 8.35 0.329
13:47 1027 30.33 857 25.31 7.9 46.2 31 -8.1 17.4 8.32 0.328
13:48 1027 30.33 857 25.31 7.8 46 32 -7.7 18.1 8.25 0.325
13:49 1027 30.33 856 25.28 7.8 46 37 -6.1 20.9 8.22 0.324
13:50 1027 30.33 857 25.31 8.1 46.5 34 -6.9 19.5 8.5 0.335
13:51 1027 30.33 856 25.28 8.1 46.6 28 -9.5 15 8.54 0.336
13:52 1027 30.33 856 25.28 7.9 46.1 38 -5.7 21.7 8.31 0.327
13:53 1027 30.33 856 25.28 7.8 46.1 35 -6.5 20.2 8.27 0.326
13:54 1027 30.33 856 25.28 7.9 46.1 35 -6.7 19.9 8.33 0.328
13:55 1027 30.33 856 25.28 7.9 46.1 34 -6.9 19.6 8.31 0.327
13:56 1027 30.33 856 25.28 7.7 45.8 34 -7.3 18.9 8.14 0.32
13:57 1027 30.33 856 25.28 7.6 45.6 34 -7.5 18.6 8.05 0.317
13:58 1027 30.33 856 25.28 7.6 45.7 32 -7.9 17.8 8.05 0.317
13:59 1027 30.33 856 25.28 7.6 45.6 35 -6.8 19.7 8.08 0.318
14:00 1027 30.33 856 25.28 7.9 46.1 31 -8.1 17.5 8.34 0.328
14:01 1027 30.33 856 25.28 8 46.4 30 -8.6 16.6 8.44 0.332
14:02 1027 30.33 856 25.28 7.9 46.2 32 -7.7 18.2 8.42 0.331
14:03 1027 30.33 856 25.28 7.9 46.2 31 -8.1 17.5 8.33 0.328
14:04 1027 30.33 856 25.28 7.9 46.1 32 -7.7 18.1 8.35 0.329
14:05 1027 30.33 856 25.28 7.9 46.1 31 -8.1 17.4 8.31 0.327
14:06 1027 30.33 856 25.28 7.8 46 30 -8.8 16.1 8.19 0.322
14:07 1027 30.33 856 25.28 7.7 45.8 35 -6.9 19.5 8.05 0.317
14:08 1027 30.33 856 25.28 7.6 45.7 30 -8.7 16.4 8.03 0.316
14:09 1027 30.33 856 25.28 7.7 45.8 33 -7.5 18.4 8.08 0.318
14:10 1027 30.33 856 25.28 7.8 46 32 -7.9 17.8 8.21 0.323
14:11 1027 30.33 856 25.28 7.9 46.1 33 -7.5 18.5 8.28 0.326
14:12 1027 30.33 856 25.28 7.8 46.1 32 -7.9 17.8 8.27 0.326
14:13 1027 30.33 856 25.28 7.7 45.8 29 -9.4 15.1 8.11 0.319
14:14 1027 30.33 856 25.28 7.6 45.7 31 -8.4 16.9 8.01 0.315
14:15 1027 30.33 856 25.28 7.7 45.8 29 -9.3 15.3 8.13 0.32
14:16 1027 30.33 856 25.28 7.7 45.9 33 -7.7 18.2 8.18 0.322
14:17 1027 30.33 856 25.28 8.2 46.7 36 -6.2 20.9 8.66 0.341
14:18 1027 30.33 856 25.28 8.7 47.6 31 -7.5 18.4 9.09 0.358
14:19 1027 30.33 856 25.28 8.5 47.4 27 -9.3 15.3 8.93 0.352
14:20 1027 30.33 856 25.28 8.4 47 31 -7.8 17.9 8.78 0.346
14:21 1027 30.33 856 25.28 8.4 47 28 -9 15.8 8.78 0.346
14:22 1027 30.33 856 25.28 8.2 46.7 31 -8 17.7 8.61 0.339
14:23 1027 30.33 856 25.28 8.2 46.8 30 -8.4 16.8 8.65 0.341
14:24 1027 30.33 856 25.28 8.3 46.9 31 -8.1 17.5 8.69 0.342
14:25 1027 30.33 856 25.28 8.2 46.7 29 -8.7 16.4 8.58 0.338
14:26 1027 30.33 856 25.28 8.1 46.5 30 -8.7 16.4 8.49 0.334
14:27 1027 30.33 856 25.28 8.1 46.5 31 -8.2 17.2 8.5 0.335
14:28 1027 30.33 856 25.28 8.2 46.8 32 -7.7 18.1 8.61 0.339
14:29 1027 30.33 856 25.28 8.5 47.3 30 -8.2 17.2 8.92 0.351
14:30 1027 30.33 856 25.28 8.8 47.9 28 -8.9 16 9.22 0.363
14:31 1027 30.33 856 25.28 9 48.2 27 -8.8 16.2 9.35 0.368
14:32 1027 30.33 856 25.28 9.2 48.6 30 -7.3 18.9 9.54 0.376
14:33 1027 30.33 856 25.28 9.5 49.1 33 -5.8 21.5 9.93 0.391
14:34 1027 30.33 856 25.28 9.6 49.3 27 -8.3 17 10.05 0.396
14:35 1027 30.33 856 25.28 9.5 49.1 29 -7.5 18.6 9.98 0.393
14:36 1027 30.33 856 25.28 9.6 49.2 29 -7.8 17.9 10.04 0.395
14:37 1027 30.33 856 25.28 9.3 48.7 24 -10.2 13.6 9.73 0.383
14:38 1027 30.33 856 25.28 9 48.1 28 -8.7 16.3 9.42 0.371
14:39 1027 30.33 856 25.28 8.8 47.8 29 -8.5 16.7 9.2 0.362
14:40 1027 30.33 856 25.28 8.6 47.5 27 -9.5 14.9 8.99 0.354
14:41 1027 30.33 856 25.28 8.5 47.2 29 -8.7 16.3 8.85 0.348
14:42 1027 30.33 856 25.28 8.3 47 30 -8.1 17.3 8.78 0.346
14:43 1027 30.33 856 25.28 8.4 47.1 29 -8.7 16.3 8.85 0.348
14:44 1027 30.33 856 25.28 8.4 47.2 25 -10.4 13.3 8.88 0.35
14:45 1027 30.33 856 25.28 8.4 47.1 30 -8.1 17.4 8.78 0.346
14:46 1027 30.33 856 25.28 8.5 47.3 29 -8.6 16.6 8.95 0.352
14:47 1027 30.33 856 25.28 8.6 47.4 29 -8.4 16.9 9.06 0.357
14:48 1027 30.33 856 25.28 8.7 47.6 28 -8.8 16.1 9.05 0.356
14:49 1027 30.33 856 25.28 8.6 47.4 29 -8.3 17.1 8.97 0.353
14:50 1027 30.33 856 25.28 8.8 47.8 27 -9.3 15.2 9.21 0.363
14:51 1027 30.33 856 25.28 9 48.2 26 -9.5 14.9 9.4 0.37
14:52 1027 30.33 856 25.28 8.9 48 27 -9 15.7 9.3 0.366
14:53 1027 30.33 856 25.28 8.8 47.9 27 -9.3 15.2 9.28 0.365
14:54 1027 30.33 856 25.28 8.7 47.7 26 -9.9 14.1 9.12 0.359
14:55 1027 30.33 856 25.28 8.5 47.3 28 -9.2 15.5 8.93 0.352
14:56 1027 30.33 856 25.28 8.4 47.1 30 -8 17.7 8.86 0.349
14:57 1027 30.33 856 25.28 8.4 47.1 29 -8.6 16.5 8.82 0.347
14:58 1027 30.33 856 25.28 8.4 47.1 29 -8.7 16.4 8.81 0.347
14:59 1027 30.33 856 25.28 8.6 47.5 27 -9.2 15.4 9.07 0.357
15:00 1027 30.33 856 25.28 8.9 48.1 23 -10.9 12.4 9.34 0.368
15:01 1027 30.33 856 25.28 9 48.3 27 -9 15.7 9.48 0.373
15:02 1027 30.33 856 25.28 9.3 48.8 31 -7.1 19.2 9.81 0.386
15:03 1027 30.33 856 25.28 9.7 49.4 27 -8.6 16.6 10.15 0.4
15:04 1027 30.33 856 25.28 9.8 49.7 29 -7.5 18.5 10.33 0.407
15:05 1027 30.33 856 25.28 10 50 26 -8.6 16.6 10.5 0.413
15:06 1027 30.33 856 25.28 10 50 27 -8.2 17.2 10.44 0.411
15:07 1027 30.33 856 25.28 9.9 49.8 31 -6.4 20.5 10.35 0.407
15:08 1027 30.33 856 25.28 9.6 49.3 28 -8.1 17.4 10.05 0.396
15:09 1027 30.33 856 25.28 9.4 48.9 29 -7.9 17.7 9.79 0.385
15:10 1027 30.33 856 25.28 9.2 48.6 27 -8.8 16.1 9.64 0.38
15:11 1027 30.33 856 25.28 9 48.2 26 -9.3 15.3 9.43 0.371
15:12 1027 30.33 856 25.28 8.9 48 25 -10.1 13.7 9.31 0.367
15:13 1027 30.33 856 25.28 8.9 47.9 27 -8.9 16 9.32 0.367
15:14 1027 30.33 856 25.28 8.8 47.9 26 -9.5 14.8 9.26 0.365
15:15 1027 30.33 856 25.28 8.8 47.9 29 -8.1 17.5 9.22 0.363
15:16 1027 30.33 856 25.28 9 48.2 26 -9.3 15.2 9.45 0.372
15:17 1027 30.33 856 25.28 9.2 48.6 28 -8.2 17.3 9.69 0.381
15:18 1027 30.33 856 25.28 9.2 48.6 24 -10.1 13.8 9.72 0.383
15:19 1027 30.33 856 25.28 9.1 48.3 28 -8.4 16.9 9.52 0.375
15:20 1027 30.33 856 25.28 8.9 48 30 -7.8 18 9.36 0.369
15:21 1027 30.33 856 25.28 8.9 47.9 28 -8.6 16.5 9.33 0.367
15:22 1027 30.33 856 25.28 8.9 47.9 29 -8.4 16.9 9.24 0.364
15:23 1027 30.33 856 25.28 8.8 47.8 26 -9.6 14.8 9.23 0.363
15:24 1027 30.33 856 25.28 8.8 47.8 28 -8.9 16 9.2 0.362
15:25 1027 30.33 856 25.28 8.7 47.7 28 -8.7 16.3 9.25 0.364
15:26 1027 30.33 856 25.28 8.9 47.9 27 -9 15.9 9.29 0.366
15:27 1027 30.33 856 25.28 9.1 48.3 25 -9.9 14.1 9.54 0.376
15:28 1027 30.33 856 25.28 9.2 48.5 26 -9.2 15.5 9.58 0.377
15:29 1027 30.33 856 25.28 9.1 48.4 27 -8.9 16 9.59 0.378
15:30 1027 30.33 856 25.28 9.1 48.5 26 -9.4 15.1 9.6 0.378
15:31 1027 30.33 856 25.28 9.1 48.4 30 -7.5 18.5 9.55 0.376
15:32 1027 30.33 856 25.28 9.4 48.9 25 -9.9 14.2 9.79 0.385
15:33 1027 30.33 856 25.28 9.5 49.2 31 -6.9 19.6 10.04 0.395
15:34 1027 30.33 856 25.28 9.6 49.3 27 -8.5 16.6 9.98 0.393
15:35 1027 30.33 856 25.28 9.5 49 27 -8.7 16.3 9.94 0.391
15:36 1027 30.33 856 25.28 9.5 49.1 29 -7.7 18.2 9.93 0.391
15:37 1027 30.33 856 25.28 9.6 49.3 29 -7.5 18.5 10.07 0.396
15:38 1027 30.33 856 25.28 9.8 49.6 29 -7.6 18.4 10.25 0.404
15:39 1027 30.33 856 25.28 10.1 50.1 27 -8.3 17.1 10.5 0.413
15:40 1027 30.33 856 25.28 10.2 50.4 24 -9.4 15.1 10.74 0.423
15:41 1027 30.33 856 25.28 10.3 50.5 23 -9.8 14.4 10.79 0.425
15:42 1027 30.33 856 25.28 10.2 50.3 24 -9.8 14.4 10.68 0.42
15:43 1027 30.33 856 25.28 10.1 50.1 28 -7.5 18.5 10.61 0.418
15:44 1027 30.33 856 25.28 10.2 50.4 27 -8.1 17.3 10.79 0.425
15:45 1027 30.33 856 25.28 10.3 50.6 28 -7.4 18.7 10.89 0.429
15:46 1027 30.33 856 25.28 10.4 50.8 28 -7.1 19.2 10.99 0.433
15:47 1027 30.33 856 25.28 10.5 50.9 27 -7.5 18.5 11.02 0.434
15:48 1027 30.33 856 25.28 10.6 51 33 -4.8 23.3 11.1 0.437
15:49 1027 30.33 856 25.28 10.7 51.2 25 -8.7 16.3 11.15 0.439
15:50 1027 30.33 856 25.28 10.5 50.8 27 -8 17.6 10.94 0.431
15:51 1027 30.33 856 25.28 10.3 50.6 26 -8.2 17.2 10.88 0.428
15:52 1027 30.33 856 25.28 10.4 50.8 31 -6.2 20.9 10.93 0.43
15:53 1027 30.33 856 25.28 10.6 51 25 -8.5 16.7 11.08 0.436
15:54 1027 30.33 856 25.28 10.4 50.8 30 -6.2 20.9 10.98 0.432
15:55 1027 30.33 856 25.28 10.3 50.5 28 -7.4 18.6 10.81 0.426
15:56 1027 30.33 856 25.28 10.3 50.5 31 -5.9 21.4 10.77 0.424
15:57 1027 30.33 856 25.28 10.5 51 26 -8 17.6 10.98 0.432
15:58 1027 30.33 856 25.28 10.3 50.6 25 -8.8 16.1 10.84 0.427
15:59 1027 30.33 856 25.28 10.1 50.3 28 -7.6 18.4 10.68 0.42
16:00 1027 30.33 856 25.28 10.1 50.2 27 -7.9 17.7 10.55 0.415
16:01 1027 30.33 856 25.28 9.8 49.7 25 -9.1 15.6 10.25 0.404
16:02 1027 30.33 856 25.28 9.5 49 27 -8.5 16.7 9.97 0.393
16:03 1027 30.33 856 25.28 9.3 48.7 30 -7.4 18.7 9.74 0.383
16:04 1027 30.33 856 25.28 9.4 48.9 26 -8.9 15.9 9.84 0.387
16:05 1027 30.33 856 25.28 9.7 49.4 28 -8.1 17.4 10.16 0.4
16:06 1027 30.33 856 25.28 9.9 49.8 28 -7.7 18.2 10.38 0.409
16:07 1027 30.33 856 25.28 10.1 50.2 27 -7.9 17.8 10.61 0.418
16:08 1027 30.33 856 25.28 10.4 50.6 25 -8.8 16.2 10.84 0.427
16:09 1027 30.33 856 25.28 10.5 51 24 -9 15.8 11.04 0.435
16:10 1027 30.33 856 25.28 10.5 51 26 -8.3 17.1 11.04 0.435
16:11 1027 30.33 856 25.28 10.5 50.8 27 -7.8 18 11.03 0.434
16:12 1027 30.33 856 25.28 10.4 50.7 28 -7.3 18.8 10.94 0.431
16:13 1027 30.33 856 25.28 10.3 50.5 24 -9.3 15.3 10.76 0.424
16:14 1027 30.33 856 25.28 10.2 50.3 26 -8.5 16.7 10.66 0.42
16:15 1027 30.33 856 25.28 10.3 50.5 28 -7.3 18.8 10.83 0.426
16:16 1027 30.33 856 25.28 10.5 50.9 25 -8.8 16.1 11.01 0.433
16:17 1027 30.33 856 25.28 10.5 50.9 24 -9 15.8 11.01 0.433
16:18 1027 30.33 856 25.28 10.4 50.7 28 -7.4 18.7 10.85 0.427
16:19 1026 30.3 856 25.28 10.4 50.7 24 -9.2 15.5 10.8 0.425
16:20 1027 30.33 856 25.28 10.4 50.7 26 -8.3 17.1 10.81 0.426
16:21 1026 30.3 856 25.28 10.5 50.8 24 -9.2 15.4 10.91 0.43
16:22 1026 30.3 856 25.28 10.5 50.9 26 -8.4 16.9 10.92 0.43
16:23 1027 30.33 856 25.28 10.6 51.1 27 -7.6 18.4 11.01 0.433
16:24 1027 30.33 856 25.28 10.7 51.2 24 -9 15.7 11.09 0.437
16:25 1026 30.3 856 25.28 10.6 51.1 25 -8.6 16.6 11.03 0.434
16:26 1027 30.33 856 25.28 10.4 50.8 23 -9.9 14.2 10.96 0.431
16:27 1026 30.3 856 25.28 10.4 50.6 24 -9.6 14.8 10.86 0.428
16:28 1026 30.3 856 25.28 10.4 50.8 27 -7.6 18.3 10.95 0.431
16:29 1026 30.3 856 25.28 10.6 51 25 -8.6 16.5 11.07 0.436
16:30 1027 30.33 856 25.28 10.6 51.1 29 -6.8 19.8 11.05 0.435
16:31 1026 30.3 856 25.28 10.8 51.4 23 -9.3 15.2 11.2 0.441
16:32 1026 30.3 856 25.28 10.8 51.5 26 -7.9 17.7 11.25 0.443
16:33 1026 30.3 856 25.28 11 51.9 29 -6.2 20.8 11.46 0.451
16:34 1026 30.3 856 25.28 11.2 52.1 26 -7.6 18.3 11.63 0.458
16:35 1026 30.3 856 25.28 11.2 52.1 26 -7.7 18.2 11.7 0.461
16:36 1026 30.3 856 25.28 11.3 52.4 31 -5.3 22.4 11.81 0.465
16:37 1026 30.3 856 25.28 11.3 52.3 29 -5.9 21.4 11.74 0.462
16:38 1026 30.3 856 25.28 11.3 52.3 26 -7.4 18.7 11.76 0.463
16:39 1026 30.3 856 25.28 11.1 52 23 -9 15.7 11.6 0.457
16:40 1026 30.3 856 25.28 10.9 51.6 28 -6.8 19.7 11.33 0.446
16:41 1026 30.3 856 25.28 10.9 51.6 29 -6.5 20.2 11.38 0.448
16:42 1026 30.3 856 25.28 11 51.8 27 -7.4 18.8 11.57 0.456
16:43 1026 30.3 856 25.28 11.1 51.9 27 -7.1 19.3 11.59 0.456
16:44 1026 30.3 856 25.28 11.1 52 29 -6.4 20.5 11.61 0.457
16:45 1026 30.3 856 25.28 11.1 51.9 25 -8.1 17.4 11.54 0.454
16:46 1026 30.3 856 25.28 11 51.8 27 -7.2 19.1 11.42 0.45
16:47 1026 30.3 856 25.28 11 51.9 26 -7.9 17.8 11.45 0.451
16:48 1026 30.3 856 25.28 11.1 52 23 -9 15.8 11.51 0.453
16:49 1026 30.3 856 25.28 11.2 52.1 27 -7.2 19 11.59 0.456
16:50 1026 30.3 856 25.28 11.3 52.3 25 -8.1 17.4 11.7 0.461
16:51 1026 30.3 856 25.28 11.2 52.1 26 -7.6 18.3 11.65 0.459
16:52 1026 30.3 856 25.28 11.2 52.2 27 -7 19.4 11.68 0.46
16:53 1026 30.3 856 25.28 11.1 51.9 24 -8.6 16.5 11.51 0.453
16:54 1026 30.3 856 25.28 10.9 51.6 23 -9.6 14.7 11.36 0.447
16:55 1026 30.3 856 25.28 10.9 51.6 29 -6.6 20.1 11.4 0.449
16:56 1026 30.3 856 25.28 11 51.9 26 -7.7 18.1 11.53 0.454
16:57 1026 30.3 856 25.28 11.1 52 28 -6.9 19.6 11.59 0.456
16:58 1026 30.3 856 25.28 11.2 52.1 27 -7.3 18.8 11.64 0.458
16:59 1026 30.3 856 25.28 11.2 52.2 31 -5.4 22.3 11.69 0.46
17:00 1026 30.3 856 25.28 11.4 52.4 24 -8.7 16.4 11.83 0.466
17:01 1026 30.3 856 25.28 11.3 52.4 28 -6.7 20 11.8 0.465
17:02 1026 30.3 856 25.28 11.4 52.5 26 -7.4 18.7 11.88 0.468
17:03 1026 30.3 855 25.25 11.4 52.5 28 -6.2 20.8 11.88 0.468
17:04 1026 30.3 856 25.28 11.4 52.4 27 -6.8 19.8 11.82 0.465
17:05 1026 30.3 855 25.25 11.4 52.5 28 -6.6 20.2 11.84 0.466
17:06 1026 30.3 855 25.25 11.4 52.4 26 -7.5 18.5 11.79 0.464
17:07 1026 30.3 856 25.28 11.2 52.2 26 -7.5 18.6 11.63 0.458
17:08 1026 30.3 855 25.25 11.3 52.3 25 -8 17.6 11.71 0.461
17:09 1026 30.3 855 25.25 11.4 52.6 23 -8.8 16.2 11.92 0.469
17:10 1026 30.3 855 25.25 11.4 52.5 27 -7.1 19.2 11.83 0.466
17:11 1026 30.3 855 25.25 11.5 52.6 28 -6.3 20.7 11.87 0.467
17:12 1026 30.3 855 25.25 11.6 52.8 22 -9.2 15.4 12.05 0.474
17:13 1026 30.3 855 25.25 11.5 52.7 27 -6.9 19.6 11.93 0.47
17:14 1026 30.3 855 25.25 11.5 52.7 24 -8.4 16.8 11.95 0.47
17:15 1026 30.3 855 25.25 11.4 52.6 26 -7.4 18.7 11.87 0.467
17:16 1026 30.3 855 25.25 11.5 52.7 28 -6.6 20.2 11.98 0.472
17:17 1026 30.3 855 25.25 11.5 52.7 24 -8.4 16.9 11.98 0.472
17:18 1026 30.3 855 25.25 11.4 52.5 26 -7.3 18.9 11.85 0.467
17:19 1026 30.3 855 25.25 11.4 52.5 25 -7.8 18 11.87 0.467
17:20 1026 30.3 855 25.25 11.5 52.7 28 -6.3 20.7 12.01 0.473
17:21 1026 30.3 855 25.25 11.6 52.9 28 -6.3 20.6 12.03 0.474
17:22 1026 30.3 855 25.25 11.5 52.7 26 -7.5 18.6 11.93 0.47
17:23 1026 30.3 855 25.25 11.4 52.4 24 -8.7 16.3 11.82 0.465
17:24 1026 30.3 855 25.25 11.2 52.2 22 -9.5 14.9 11.63 0.458
17:25 1026 30.3 855 25.25 11.1 52 27 -7.1 19.2 11.58 0.456
17:26 1026 30.3 855 25.25 11.2 52.1 25 -8.2 17.3 11.63 0.458
17:27 1026 30.3 855 25.25 11.2 52.2 28 -6.5 20.3 11.66 0.459
17:28 1026 30.3 855 25.25 11.4 52.4 26 -7.4 18.8 11.8 0.465
17:29 1026 30.3 855 25.25 11.4 52.4 27 -7 19.4 11.84 0.466
17:30 1026 30.3 855 25.25 11.4 52.4 26 -7.3 18.9 11.81 0.465
17:31 1026 30.3 855 25.25 11.3 52.4 25 -7.9 17.8 11.81 0.465
17:32 1026 30.3 855 25.25 11.3 52.3 25 -7.9 17.8 11.76 0.463
17:33 1026 30.3 855 25.25 11.3 52.4 27 -7.1 19.3 11.76 0.463
17:34 1026 30.3 855 25.25 11.3 52.4 26 -7.3 18.9 11.79 0.464
17:35 1026 30.3 855 25.25 11.3 52.3 24 -8.8 16.2 11.81 0.465
17:36 1026 30.3 855 25.25 11.3 52.3 25 -8.2 17.2 11.72 0.461
17:37 1026 30.3 855 25.25 11.2 52.2 27 -7 19.4 11.72 0.461
17:38 1026 30.3 855 25.25 11.3 52.4 28 -6.6 20.1 11.77 0.463
17:39 1026 30.3 855 25.25 11.3 52.3 28 -6.6 20.2 11.78 0.464
17:40 1026 30.3 855 25.25 11.3 52.3 23 -9.2 15.5 11.69 0.46
17:41 1026 30.3 855 25.25 11.2 52.2 26 -7.4 18.6 11.61 0.457
17:42 1026 30.3 855 25.25 11.2 52.1 25 -8 17.6 11.64 0.458
17:43 1026 30.3 855 25.25 11.2 52.1 26 -7.6 18.3 11.65 0.459
17:44 1026 30.3 855 25.25 11.2 52.1 28 -6.8 19.8 11.62 0.457
17:45 1026 30.3 855 25.25 11.2 52.2 26 -7.3 18.8 11.7 0.461
17:46 1026 30.3 855 25.25 11.4 52.5 24 -8.6 16.5 11.85 0.467
17:47 1026 30.3 855 25.25 11.5 52.7 25 -8.1 17.5 11.95 0.47
17:48 1026 30.3 855 25.25 11.6 52.8 22 -9.5 14.9 11.97 0.471
17:49 1026 30.3 855 25.25 11.5 52.8 26 -7.3 18.9 11.96 0.471
17:50 1026 30.3 855 25.25 11.6 52.8 24 -8.4 16.9 11.99 0.472
17:51 1026 30.3 855 25.25 11.5 52.6 24 -8.2 17.2 11.85 0.467
17:52 1026 30.3 855 25.25 11.5 52.6 24 -8.2 17.3 11.89 0.468
17:53 1026 30.3 855 25.25 11.6 52.8 24 -8.2 17.3 11.98 0.472
17:54 1026 30.3 855 25.25 11.5 52.8 27 -6.8 19.8 11.97 0.471
17:55 1026 30.3 855 25.25 11.6 52.9 28 -6.2 20.9 12.05 0.474
17:56 1026 30.3 855 25.25 11.7 53 25 -7.9 17.8 12.14 0.478
17:57 1026 30.3 855 25.25 11.7 53 24 -8.3 17.1 12.13 0.478
17:58 1026 30.3 855 25.25 11.7 53 24 -8.3 17 12.14 0.478
17:59 1026 30.3 855 25.25 11.7 53 23 -8.7 16.4 12.1 0.476
18:00 1026 30.3 855 25.25 11.7 53.1 27 -6.6 20.2 12.14 0.478
18:01 1026 30.3 855 25.25 11.7 53.1 24 -8.2 17.2 12.17 0.479
18:02 1026 30.3 855 25.25 11.7 53 24 -8.4 16.9 12.1 0.476
18:03 1026 30.3 855 25.25 11.6 52.8 23 -8.8 16.1 12.02 0.473
18:04 1026 30.3 855 25.25 11.5 52.7 25 -7.6 18.4 11.97 0.471
18:05 1026 30.3 855 25.25 11.5 52.7 24 -8.2 17.3 11.91 0.469
18:06 1026 30.3 855 25.25 11.5 52.8 27 -6.6 20.1 11.94 0.47
18:07 1026 30.3 855 25.25 11.6 52.9 22 -9.7 14.6 12.04 0.474
18:08 1026 30.3 855 25.25 11.6 52.9 24 -8 17.6 12 0.472
18:09 1026 30.3 855 25.25 11.6 52.9 24 -8.3 17.1 11.98 0.472
18:10 1026 30.3 855 25.25 11.6 52.9 25 -7.9 17.7 12.04 0.474
18:11 1026 30.3 855 25.25 11.7 53.1 23 -8.5 16.8 12.09 0.476
18:12 1026 30.3 855 25.25 11.7 53 26 -7.2 19.1 12.17 0.479
18:13 1026 30.3 855 25.25 11.8 53.2 27 -6.5 20.2 12.19 0.48
18:14 1026 30.3 855 25.25 11.8 53.3 24 -8 17.6 12.26 0.483
18:15 1026 30.3 855 25.25 11.7 53 24 -8.1 17.5 12.15 0.478
18:16 1026 30.3 855 25.25 11.7 53 23 -8.9 16.1 12.14 0.478
18:17 1026 30.3 855 25.25 11.6 52.9 26 -7.4 18.6 12.13 0.478
18:18 1026 30.3 855 25.25 11.7 53 27 -6.9 19.6 12.1 0.476
18:19 1026 30.3 855 25.25 11.6 52.9 25 -7.8 17.9 12.05 0.474
18:20 1026 30.3 855 25.25 11.5 52.7 27 -6.6 20.1 11.98 0.472
18:21 1026 30.3 855 25.25 11.5 52.7 26 -7.3 18.9 11.93 0.47
18:22 1026 30.3 855 25.25 11.5 52.6 28 -6.4 20.5 11.92 0.469
18:23 1026 30.3 855 25.25 11.5 52.6 25 -7.9 17.7 11.93 0.47
18:24 1026 30.3 855 25.25 11.5 52.6 25 -8 17.7 11.91 0.469
18:25 1026 30.3 855 25.25 11.5 52.6 23 -8.9 16 11.89 0.468
18:26 1026 30.3 855 25.25 11.5 52.7 25 -7.7 18.2 11.93 0.47
18:27 1026 30.3 855 25.25 11.6 52.8 25 -8 17.6 11.98 0.472
18:28 1026 30.3 855 25.25 11.6 52.9 24 -8.1 17.5 12.06 0.475
18:29 1026 30.3 855 25.25 11.6 52.9 25 -8 17.7 12.06 0.475
18:30 1026 30.3 855 25.25 11.6 52.8 26 -7.1 19.2 12.03 0.474
18:31 1026 30.3 855 25.25 11.5 52.8 28 -6.2 20.8 12.01 0.473
18:32 1026 30.3 855 25.25 11.5 52.6 29 -5.8 21.5 11.92 0.469
18:33 1026 30.3 855 25.25 11.4 52.5 25 -7.9 17.7 11.89 0.468
18:34 1026 30.3 855 25.25 11.4 52.5 25 -7.9 17.8 11.83 0.466
18:35 1026 30.3 855 25.25 11.3 52.4 26 -7.5 18.5 11.78 0.464
18:36 1026 30.3 855 25.25 11.4 52.5 28 -6.5 20.3 11.82 0.465
18:37 1026 30.3 855 25.25 11.4 52.5 28 -6.5 20.4 11.8 0.465
18:38 1026 30.3 855 25.25 11.4 52.5 31 -5.2 22.6 11.82 0.465
18:39 1026 30.3 855 25.25 11.4 52.6 22 -9.4 15 11.87 0.467
18:40 1026 30.3 855 25.25 11.4 52.5 25 -7.9 17.9 11.84 0.466
18:41 1026 30.3 855 25.25 11.4 52.6 26 -7.2 19 11.84 0.466
18:42 1026 30.3 855 25.25 11.4 52.5 29 -5.8 21.6 11.85 0.467
18:43 1026 30.3 855 25.25 11.4 52.5 28 -6.3 20.6 11.89 0.468
18:44 1026 30.3 855 25.25 11.4 52.6 29 -6.1 21.1 11.9 0.469
18:45 1026 30.3 855 25.25 11.4 52.5 29 -5.9 21.4 11.88 0.468
18:46 1026 30.3 855 25.25 11.4 52.5 28 -6.4 20.4 11.83 0.466
18:47 1026 30.3 855 25.25 11.4 52.4 29 -5.9 21.4 11.83 0.466
18:48 1026 30.3 855 25.25 11.4 52.4 24 -8.2 17.2 11.78 0.464
18:49 1026 30.3 855 25.25 11.3 52.4 28 -6.7 19.9 11.74 0.462
18:50 1026 30.3 855 25.25 11.3 52.4 25 -8.2 17.3 11.75 0.463
18:51 1026 30.3 855 25.25 11.3 52.4 25 -8.1 17.4 11.72 0.461
18:52 1026 30.3 855 25.25 11.3 52.3 26 -7.6 18.3 11.72 0.461
18:53 1026 30.3 855 25.25 11.3 52.3 29 -6.2 20.9 11.74 0.462
18:54 1026 30.3 855 25.25 11.3 52.4 26 -7.6 18.3 11.79 0.464
18:55 1026 30.3 855 25.25 11.3 52.4 27 -6.8 19.7 11.76 0.463
18:56 1026 30.3 855 25.25 11.3 52.3 28 -6.3 20.6 11.74 0.462
18:57 1026 30.3 855 25.25 11.3 52.3 27 -7.2 19 11.74 0.462
18:58 1026 30.3 855 25.25 11.2 52.2 28 -6.7 20 11.67 0.459
18:59 1026 30.3 855 25.25 11.2 52.1 28 -6.9 19.6 11.57 0.456
19:00 1026 30.3 855 25.25 11.2 52.1 28 -6.7 20 11.6 0.457
19:01 1026 30.3 855 25.25 11.2 52.2 27 -7.2 19.1 11.66 0.459
19:02 1026 30.3 855 25.25 11.2 52.1 25 -8.1 17.4 11.63 0.458
19:03 1026 30.3 855 25.25 11.2 52.1 27 -6.9 19.6 11.59 0.456
19:04 1026 30.3 855 25.25 11.2 52.1 26 -7.4 18.7 11.66 0.459
19:05 1026 30.3 855 25.25 11.2 52.1 25 -8.3 17.1 11.6 0.457
19:06 1026 30.3 855 25.25 11.1 52 25 -8.4 16.8 11.54 0.454
19:07 1026 30.3 855 25.25 11.1 51.9 26 -7.5 18.4 11.5 0.453
19:08 1026 30.3 855 25.25 11.1 52 30 -5.7 21.7 11.52 0.454
19:09 1026 30.3 855 25.25 11.1 51.9 27 -7 19.4 11.52 0.454
19:10 1026 30.3 855 25.25 11 51.9 28 -6.6 20.2 11.49 0.452
19:11 1026 30.3 855 25.25 11 51.8 30 -5.9 21.4 11.45 0.451
19:12 1026 30.3 855 25.25 11 51.9 28 -6.6 20.1 11.49 0.452
19:13 1026 30.3 855 25.25 11 51.8 28 -6.8 19.8 11.49 0.452
19:14 1026 30.3 855 25.25 11 51.9 27 -7 19.3 11.46 0.451
19:15 1026 30.3 855 25.25 11 51.8 29 -6.4 20.5 11.42 0.45
19:16 1026 30.3 855 25.25 11 51.7 30 -5.9 21.3 11.4 0.449
19:17 1026 30.3 855 25.25 10.9 51.6 31 -5.7 21.7 11.36 0.447
19:18 1026 30.3 855 25.25 10.8 51.4 31 -5.8 21.5 11.25 0.443
19:19 1026 30.3 855 25.25 10.7 51.3 30 -6.2 20.8 11.19 0.441
19:20 1026 30.3 855 25.25 10.7 51.2 31 -5.9 21.4 11.1 0.437
19:21 1026 30.3 855 25.25 10.7 51.2 30 -6.1 21 11.09 0.437
19:22 1026 30.3 855 25.25 10.7 51.2 30 -6 21.1 11.11 0.437
19:23 1026 30.3 855 25.25 10.6 51.2 31 -5.8 21.5 11.09 0.437
19:24 1026 30.3 855 25.25 10.6 51 33 -5.2 22.6 11.03 0.434
19:25 1026 30.3 855 25.25 10.6 51.1 31 -5.9 21.4 11 0.433
19:26 1026 30.3 855 25.25 10.5 51 32 -5.6 22 11 0.433
19:27 1026 30.3 855 25.25 10.5 50.9 33 -5.2 22.6 10.99 0.433
19:28 1026 30.3 855 25.25 10.5 50.8 32 -5.5 22 10.9 0.429
19:29 1026 30.3 855 25.25 10.4 50.7 30 -6.2 20.8 10.85 0.427
19:30 1026 30.3 855 25.25 10.4 50.7 27 -7.6 18.3 10.84 0.427
19:31 1026 30.3 855 25.25 10.4 50.8 31 -6.1 21.1 10.85 0.427
19:32 1026 30.3 855 25.25 10.4 50.7 31 -6 21.2 10.85 0.427
19:33 1026 30.3 855 25.25 10.3 50.6 33 -5.4 22.2 10.81 0.426
19:34 1026 30.3 855 25.25 10.3 50.5 32 -5.6 21.8 10.76 0.424
19:35 1026 30.3 855 25.25 10.2 50.4 29 -6.9 19.6 10.72 0.422
19:36 1026 30.3 855 25.25 10.3 50.5 30 -6.5 20.3 10.73 0.422
19:37 1026 30.3 855 25.25 10.3 50.5 31 -6 21.1 10.73 0.422
19:38 1026 30.3 855 25.25 10.3 50.5 31 -6.2 20.8 10.69 0.421
19:39 1026 30.3 855 25.25 10.2 50.3 33 -5.6 22 10.67 0.42
19:40 1026 30.3 855 25.25 10.1 50.2 32 -5.7 21.8 10.58 0.417
19:41 1026 30.3 855 25.25 10.1 50.1 33 -5.3 22.5 10.5 0.413
19:42 1026 30.3 855 25.25 10 50 33 -5.4 22.4 10.5 0.413
19:43 1026 30.3 855 25.25 10 49.9 33 -5.5 22 10.4 0.409
19:44 1026 30.3 855 25.25 9.9 49.8 32 -5.9 21.4 10.35 0.407
19:45 1026 30.3 855 25.25 9.8 49.6 32 -6.1 20.9 10.27 0.404
19:46 1026 30.3 855 25.25 9.8 49.6 32 -5.9 21.3 10.24 0.403
19:47 1026 30.3 855 25.25 9.8 49.6 33 -5.7 21.8 10.23 0.403
19:48 1026 30.3 855 25.25 9.8 49.6 34 -5.3 22.4 10.23 0.403
19:49 1026 30.3 855 25.25 9.7 49.5 35 -4.8 23.3 10.15 0.4
19:50 1026 30.3 855 25.25 9.6 49.2 36 -4.9 23.2 10.07 0.396
19:51 1026 30.3 855 25.25 9.5 49.1 36 -4.9 23.1 9.97 0.393
19:52 1026 30.3 855 25.25 9.4 48.9 36 -4.7 23.5 9.83 0.387
19:53 1026 30.3 855 25.25 9.3 48.7 37 -4.8 23.4 9.76 0.384
19:54 1026 30.3 855 25.25 9.2 48.5 35 -5.4 22.2 9.59 0.378
19:55 1026 30.3 855 25.25 9.2 48.5 35 -5.6 21.8 9.58 0.377
19:56 1026 30.3 855 25.25 9.2 48.5 34 -6 21.1 9.57 0.377
19:57 1026 30.3 855 25.25 9.2 48.5 35 -5.4 22.2 9.55 0.376
19:58 1026 30.3 855 25.25 9.1 48.3 35 -5.5 22.1 9.5 0.374
19:59 1026 30.3 855 25.25 9 48.2 35 -5.8 21.6 9.42 0.371
20:00 1026 30.3 855 25.25 9 48.1 36 -5.3 22.5 9.34 0.368
20:01 1026 30.3 855 25.25 8.8 47.8 35 -5.6 21.8 9.24 0.364
20:02 1026 30.3 855 25.25 8.7 47.6 38 -4.8 23.3 9.16 0.361
20:03 1026 30.3 855 25.25 8.5 47.3 37 -5.2 22.6 8.98 0.354
20:04 1026 30.3 855 25.25 8.4 47.1 38 -5.1 22.9 8.86 0.349
20:05 1026 30.3 855 25.25 8.3 47 40 -4.5 23.9 8.74 0.344
20:06 1026 30.3 855 25.25 8.1 46.6 40 -4.6 23.7 8.57 0.337
20:07 1026 30.3 855 25.25 8 46.3 41 -4.6 23.8 8.43 0.332
20:08 1026 30.3 855 25.25 7.9 46.1 42 -4.2 24.5 8.27 0.326
20:09 1026 30.3 855 25.25 7.7 45.9 43 -4 24.8 8.16 0.321
20:10 1026 30.3 855 25.25 7.5 45.6 43 -4.2 24.4 7.99 0.315
20:11 1026 30.3 855 25.25 7.4 45.3 43 -4.3 24.2 7.84 0.309
20:12 1026 30.3 855 25.25 7.3 45.1 42 -4.7 23.6 7.72 0.304
20:13 1026 30.3 855 25.25 7.3 45.1 42 -4.9 23.1 7.62 0.3
20:14 1026 30.3 855 25.25 7.2 44.9 41 -5.1 22.9 7.6 0.299
20:15 1026 30.3 855 25.25 7.2 44.9 43 -4.7 23.6 7.57 0.298
20:16 1026 30.3 855 25.25 7.2 44.9 40 -5.5 22.1 7.56 0.298
20:17 1026 30.3 855 25.25 7.2 45 41 -5.3 22.5 7.6 0.299
20:18 1026 30.3 855 25.25 7.2 45 41 -5.1 22.8 7.61 0.3
20:19 1026 30.3 855 25.25 7.2 44.9 42 -4.8 23.3 7.6 0.299
20:20 1026 30.3 855 25.25 7.1 44.8 41 -5.2 22.7 7.51 0.296
20:21 1026 30.3 855 25.25 7.1 44.7 40 -5.8 21.6 7.41 0.292
20:22 1026 30.3 855 25.25 7 44.7 41 -5.4 22.3 7.38 0.291
20:23 1026 30.3 855 25.25 7 44.6 41 -5.4 22.2 7.39 0.291
20:24 1026 30.3 855 25.25 6.9 44.5 41 -5.5 22.2 7.34 0.289
20:25 1026 30.3 855 25.25 6.9 44.4 42 -5.2 22.6 7.24 0.285
20:26 1026 30.3 855 25.25 6.8 44.2 47 -3.8 25.2 7.16 0.282
20:27 1026 30.3 855 25.25 6.2 43.1 46 -4.7 23.6 6.666 0.262
20:28 1026 30.3 855 25.25 5.6 42 49 -4.4 24 6.033 0.238
20:29 1026 30.3 855 25.25 5.1 41.1 50 -4.6 23.8 5.541 0.218
20:30 1026 30.3 855 25.25 4.8 40.6 49 -5 23 5.185 0.204
20:31 1026 30.3 855 25.25 4.8 40.6 48 -5.2 22.6 5.095 0.201
20:32 1026 30.3 855 25.25 4.8 40.7 47 -5.5 22.1 5.151 0.203
20:33 1026 30.3 855 25.25 4.8 40.7 47 -5.5 22.1 5.129 0.202
20:34 1026 30.3 855 25.25 4.7 40.4 47 -5.6 22 5.016 0.197
20:35 1026 30.3 855 25.25 4.6 40.3 48 -5.5 22 4.959 0.195
20:36 1026 30.3 855 25.25 4.6 40.3 48 -5.4 22.2 4.965 0.195
20:37 1026 30.3 855 25.25 4.6 40.2 49 -5.3 22.5 4.932 0.194
20:38 1026 30.3 855 25.25 4.5 40.1 49 -5.4 22.3 4.854 0.191
20:39 1026 30.3 855 25.25 4.4 39.9 49 -5.4 22.2 4.729 0.186
20:40 1026 30.3 855 25.25 4.3 39.8 48 -5.6 21.9 4.703 0.185
20:41 1026 30.3 855 25.25 4.4 40 48 -5.6 21.9 4.738 0.187
20:42 1026 30.3 855 25.25 4.6 40.3 47 -5.6 21.8 4.953 0.195
20:43 1026 30.3 855 25.25 4.8 40.7 47 -5.5 22 5.163 0.203
20:44 1026 30.3 855 25.25 5 40.9 47 -5.4 22.3 5.289 0.208
20:45 1026 30.3 855 25.25 4.9 40.8 48 -5.2 22.6 5.283 0.208
20:46 1026 30.3 855 25.25 4.7 40.5 48 -5.3 22.5 5.126 0.202
20:47 1026 30.3 855 25.25 4.6 40.2 48 -5.5 22.2 4.94 0.194
20:48 1026 30.3 855 25.25 4.4 40 49 -5.5 22.1 4.822 0.19
20:49 1026 30.3 855 25.25 4.3 39.8 48 -5.6 21.9 4.687 0.185
20:50 1026 30.3 855 25.25 4.2 39.6 48 -5.8 21.5 4.602 0.181
20:51 1026 30.3 855 25.25 4.2 39.6 48 -5.7 21.7 4.602 0.181
20:52 1026 30.3 856 25.28 4.2 39.6 49 -5.6 22 4.581 0.18
20:53 1026 30.3 856 25.28 4.1 39.4 49 -5.7 21.7 4.541 0.179
20:54 1026 30.3 856 25.28 4.1 39.3 49 -5.6 22 4.485 0.177
20:55 1026 30.3 856 25.28 3.9 39.1 50 -5.6 21.9 4.333 0.171
20:56 1026 30.3 856 25.28 3.8 38.8 51 -5.4 22.2 4.163 0.164
20:57 1026 30.3 856 25.28 3.6 38.6 51 -5.7 21.8 4.056 0.16
20:58 1026 30.3 856 25.28 3.6 38.5 50 -5.9 21.3 4.006 0.158
20:59 1026 30.3 856 25.28 3.8 38.8 50 -5.8 21.6 4.108 0.162
21:00 1026 30.3 856 25.28 3.9 39 50 -5.6 21.9 4.232 0.167
21:01 1026 30.3 856 25.28 3.8 38.9 51 -5.4 22.3 4.238 0.167
21:02 1026 30.3 856 25.28 3.7 38.6 52 -5.3 22.4 4.091 0.161
21:03 1026 30.3 856 25.28 3.5 38.3 52 -5.3 22.4 3.933 0.155
21:04 1026 30.3 856 25.28 3.4 38.1 52 -5.6 22 3.776 0.149
21:05 1026 30.3 856 25.28 3.4 38.1 51 -5.8 21.6 3.754 0.148
21:06 1026 30.3 856 25.28 3.4 38.1 52 -5.6 21.9 3.76 0.148
21:07 1026 30.3 856 25.28 3.3 38 51 -5.8 21.6 3.761 0.148
21:08 1026 30.3 856 25.28 3.4 38 52 -5.7 21.8 3.744 0.147
21:09 1026 30.3 856 25.28 3.4 38 52 -5.6 21.9 3.756 0.148
21:10 1026 30.3 856 25.28 3.3 37.9 52 -5.7 21.7 3.713 0.146
21:11 1026 30.3 856 25.28 3.3 37.9 52 -5.7 21.7 3.685 0.145
21:12 1026 30.3 856 25.28 3.3 37.9 52 -5.7 21.7 3.668 0.144
21:13 1026 30.3 856 25.28 3.2 37.8 52 -5.7 21.8 3.653 0.144
21:14 1026 30.3 856 25.28 3.2 37.7 52 -5.6 21.9 3.613 0.142
21:15 1026 30.3 856 25.28 3.2 37.7 52 -5.6 21.8 3.597 0.142
21:16 1026 30.3 856 25.28 3.2 37.7 52 -5.6 21.8 3.524 0.139
21:17 1026 30.3 856 25.28 3.2 37.7 52 -5.7 21.8 3.581 0.141
21:18 1026 30.3 856 25.28 3.2 37.7 52 -5.7 21.8 3.57 0.141
21:19 1026 30.3 856 25.28 3.2 37.7 52 -5.8 21.6 3.594 0.141
21:20 1026 30.3 856 25.28 3.2 37.8 51 -5.8 21.5 3.656 0.144
21:21 1026 30.3 856 25.28 3.3 38 51 -5.8 21.6 3.69 0.145
21:22 1026 30.3 856 25.28 3.4 38.1 51 -5.9 21.5 3.787 0.149
21:23 1026 30.3 856 25.28 3.5 38.2 52 -5.5 22 3.804 0.15
21:24 1026 30.3 856 25.28 3.4 38.1 51 -5.7 21.8 3.788 0.149
21:25 1026 30.3 856 25.28 3.4 38.1 51 -5.8 21.5 3.799 0.15
21:26 1026 30.3 856 25.28 3.4 38.1 51 -5.7 21.7 3.788 0.149
21:27 1026 30.3 856 25.28 3.3 38 53 -5.4 22.3 3.732 0.147
21:28 1026 30.3 856 25.28 3 37.4 54 -5.5 22.1 3.444 0.136
21:29 1026 30.3 856 25.28 2.9 37.3 53 -5.7 21.8 3.308 0.13
21:30 1026 30.3 856 25.28 2.9 37.2 54 -5.6 21.9 3.297 0.13
21:31 1026 30.3 856 25.28 2.9 37.2 53 -5.7 21.8 3.297 0.13
21:32 1026 30.3 856 25.28 3 37.4 53 -5.7 21.8 3.382 0.133
21:33 1026 30.3 856 25.28 3 37.5 53 -5.7 21.8 3.467 0.136
21:34 1026 30.3 856 25.28 3.2 37.7 53 -5.6 21.9 3.518 0.139
21:35 1026 30.3 856 25.28 3.2 37.7 52 -5.7 21.8 3.603 0.142
21:36 1026 30.3 856 25.28 3.3 37.9 52 -5.7 21.7 3.673 0.145
21:37 1026 30.3 856 25.28 3.4 38.1 50 -6 21.3 3.78 0.149
21:38 1026 30.3 856 25.28 3.6 38.4 50 -5.8 21.6 3.956 0.156
21:39 1026 30.3 856 25.28 3.7 38.7 49 -5.9 21.3 4.082 0.161
21:40 1026 30.3 856 25.28 3.9 38.9 48 -6.2 20.9 4.246 0.167
21:41 1026 30.3 856 25.28 4 39.1 49 -5.9 21.5 4.359 0.172
21:42 1026 30.3 856 25.28 4 39.2 49 -5.9 21.4 4.373 0.172
21:43 1026 30.3 856 25.28 4 39.1 48 -6 21.3 4.351 0.171
21:44 1026 30.3 856 25.28 4 39.2 48 -6.1 21 4.385 0.173
21:45 1027 30.33 856 25.28 4 39.1 49 -5.7 21.8 4.381 0.172
21:46 1027 30.33 856 25.28 3.8 38.8 50 -5.8 21.5 4.24 0.167
21:47 1027 30.33 856 25.28 3.8 38.8 49 -6 21.3 4.183 0.165
21:48 1027 30.33 856 25.28 3.7 38.7 49 -6 21.3 4.179 0.165
21:49 1027 30.33 856 25.28 3.7 38.7 48 -6.2 20.8 4.139 0.163
21:50 1027 30.33 856 25.28 3.8 38.8 48 -6.3 20.7 4.14 0.163
21:51 1027 30.33 856 25.28 3.8 38.9 49 -6.1 21.1 4.22 0.166
21:52 1027 30.33 856 25.28 3.8 38.9 49 -6 21.1 4.203 0.165
21:53 1027 30.33 856 25.28 3.7 38.7 48 -6.2 20.8 4.152 0.163
21:54 1027 30.33 856 25.28 3.7 38.7 49 -6.1 21 4.119 0.162
21:55 1027 30.33 856 25.28 3.7 38.7 46 -6.8 19.7 4.148 0.163
21:56 1027 30.33 856 25.28 4 39.1 47 -6.5 20.4 4.346 0.171
21:57 1027 30.33 856 25.28 4.1 39.3 46 -6.5 20.2 4.426 0.174
21:58 1027 30.33 856 25.28 4.1 39.4 46 -6.4 20.5 4.511 0.178
21:59 1027 30.33 856 25.28 4.1 39.4 46 -6.5 20.4 4.528 0.178
22:00 1027 30.33 856 25.28 4.1 39.4 46 -6.5 20.3 4.54 0.179
22:01 1027 30.33 856 25.28 4.2 39.5 46 -6.4 20.5 4.528 0.178
22:02 1027 30.33 856 25.28 4.1 39.4 47 -6.3 20.7 4.512 0.178
22:03 1027 30.33 856 25.28 4.1 39.3 45 -6.9 19.5 4.444 0.175
22:04 1027 30.33 856 25.28 4.3 39.7 43 -7.2 19.1 4.648 0.183
22:05 1027 30.33 856 25.28 4.5 40 44 -6.7 19.9 4.818 0.19
22:06 1027 30.33 856 25.28 4.4 40 44 -6.8 19.8 4.812 0.189
22:07 1027 30.33 856 25.28 4.4 39.9 44 -6.8 19.7 4.767 0.188
22:08 1027 30.33 856 25.28 4.3 39.7 45 -6.7 19.9 4.733 0.186
22:09 1027 30.33 856 25.28 4.2 39.6 45 -6.7 20 4.649 0.183
22:10 1027 30.33 856 25.28 4.2 39.5 45 -6.7 20 4.609 0.181
22:11 1027 30.33 856 25.28 4.2 39.5 46 -6.5 20.3 4.581 0.18
22:12 1027 30.33 856 25.28 4 39.2 46 -6.5 20.3 4.456 0.175
22:13 1027 30.33 856 25.28 3.9 39 47 -6.3 20.6 4.287 0.169
22:14 1027 30.33 856 25.28 3.7 38.7 49 -6.1 21 4.151 0.163
22:15 1027 30.33 856 25.28 3.5 38.4 48 -6.5 20.2 3.953 0.156
22:16 1027 30.33 856 25.28 3.5 38.4 48 -6.4 20.5 3.964 0.156
22:17 1027 30.33 856 25.28 3.6 38.5 47 -6.7 19.9 4.027 0.159
22:18 1027 30.33 856 25.28 3.7 38.7 48 -6.3 20.6 4.123 0.162
22:19 1027 30.33 856 25.28 3.6 38.5 48 -6.4 20.5 4.066 0.16
22:20 1027 30.33 856 25.28 3.6 38.4 46 -7 19.3 3.942 0.155
22:21 1027 30.33 856 25.28 3.7 38.6 47 -6.7 19.9 4.01 0.158
22:22 1027 30.33 856 25.28 3.7 38.7 47 -6.5 20.3 4.078 0.161
22:23 1027 30.33 856 25.28 3.6 38.5 47 -6.6 20.1 4.004 0.158
22:24 1027 30.33 856 25.28 3.6 38.5 47 -6.7 20 3.982 0.157
22:25 1027 30.33 856 25.28 3.6 38.6 48 -6.3 20.6 3.993 0.157
22:26 1027 30.33 856 25.28 3.6 38.5 49 -6.1 20.9 4.021 0.158
22:27 1027 30.33 856 25.28 3.4 38.2 51 -5.8 21.6 3.885 0.153
22:28 1027 30.33 856 25.28 3.2 37.7 53 -5.4 22.3 3.614 0.142
22:29 1027 30.33 856 25.28 2.9 37.3 53 -5.8 21.6 3.37 0.133
22:30 1027 30.33 856 25.28 2.9 37.2 51 -6.3 20.6 3.302 0.13
22:31 1027 30.33 856 25.28 3.1 37.6 49 -6.6 20.2 3.467 0.136
22:32 1027 30.33 856 25.28 3.2 37.7 51 -5.9 21.3 3.597 0.142
22:33 1027 30.33 856 25.28 3.1 37.6 50 -6.4 20.5 3.535 0.139
22:34 1027 30.33 856 25.28 3.1 37.5 52 -5.9 21.3 3.472 0.137
22:35 1027 30.33 856 25.28 3.1 37.6 51 -6.2 20.9 3.484 0.137
22:36 1027 30.33 856 25.28 3.1 37.6 52 -5.8 21.5 3.552 0.14
22:37 1027 30.33 856 25.28 2.9 37.3 52 -5.8 21.5 3.393 0.134
22:38 1027 30.33 856 25.28 2.6 36.7 53 -6 21.2 3.104 0.122
22:39 1027 30.33 856 25.28 2.5 36.5 52 -6.4 20.5 2.884 0.114
22:40 1027 30.33 856 25.28 2.6 36.6 52 -6.3 20.6 2.952 0.116
22:41 1027 30.33 856 25.28 2.5 36.5 53 -6.2 20.9 2.906 0.114
22:42 1027 30.33 856 25.28 2.4 36.3 53 -6.2 20.8 2.816 0.111
22:43 1027 30.33 856 25.28 2.4 36.3 53 -6.2 20.8 2.765 0.109
22:44 1027 30.33 856 25.28 2.3 36.1 53 -6.2 20.8 2.714 0.107
22:45 1027 30.33 856 25.28 2.1 35.8 55 -5.9 21.3 2.482 0.098
22:46 1027 30.33 856 25.28 2 35.6 55 -6.1 21 2.414 0.095
22:47 1027 30.33 856 25.28 1.9 35.4 55 -6.2 20.8 2.278 0.09
22:48 1027 30.33 856 25.28 1.8 35.2 55 -6.4 20.5 2.142 0.084
22:49 1027 30.33 856 25.28 1.9 35.4 54 -6.4 20.5 2.278 0.09
22:50 1027 30.33 856 25.28 2 35.6 55 -6 21.2 2.386 0.094
22:51 1027 30.33 856 25.28 1.9 35.4 55 -6.3 20.7 2.272 0.089
22:52 1027 30.33 856 25.28 1.8 35.3 56 -5.9 21.3 2.21 0.087
22:53 1027 30.33 856 25.28 1.6 34.9 56 -6.3 20.7 2.04 0.08
22:54 1027 30.33 856 25.28 1.6 34.9 56 -6.2 20.9 2.046 0.081
22:55 1027 30.33 856 25.28 1.6 34.9 56 -6.1 20.9 2.006 0.079
22:56 1027 30.33 856 25.28 1.6 34.9 56 -6.2 20.8 2.035 0.08
22:57 1027 30.33 856 25.28 1.8 35.2 55 -6.3 20.7 2.17 0.085
22:58 1027 30.33 856 25.28 2 35.5 54 -6.3 20.6 2.324 0.091
22:59 1027 30.33 856 25.28 2.1 35.8 53 -6.4 20.4 2.506 0.099
23:00 1027 30.33 856 25.28 2.2 36 52 -6.7 20 2.563 0.101
23:01 1027 30.33 856 25.28 2.4 36.3 51 -6.6 20.1 2.744 0.108
23:02 1027 30.33 856 25.28 2.5 36.5 52 -6.4 20.5 2.835 0.112
23:03 1027 30.33 856 25.28 2.4 36.3 53 -6.2 20.8 2.722 0.107
23:04 1027 30.33 856 25.28 2.2 35.9 55 -6 21.2 2.604 0.103
23:05 1027 30.33 856 25.28 1.9 35.4 57 -5.8 21.6 2.361 0.093
23:06 1027 30.33 856 25.28 1.6 35 58 -5.8 21.5 2.123 0.084
23:07 1027 30.33 856 25.28 1.5 34.7 58 -5.9 21.4 1.908 0.075
23:08 1027 30.33 856 25.28 1.3 34.4 59 -5.7 21.7 1.756 0.069
23:09 1027 30.33 856 25.28 1.2 34.1 60 -5.7 21.8 1.62 0.064
23:10 1027 30.33 856 25.28 1 33.8 61 -5.7 21.7 1.439 0.057
23:11 1027 30.33 856 25.28 0.9 33.7 62 -5.6 21.9 1.36 0.054
23:12 1027 30.33 856 25.28 0.9 33.6 61 -5.7 21.7 1.258 0.05
23:13 1027 30.33 856 25.28 0.9 33.6 62 -5.5 22.1 1.287 0.051
23:14 1027 30.33 856 25.28 0.8 33.4 64 -5.3 22.5 1.179 0.046
23:15 1027 30.33 856 25.28 0.6 33.1 65 -5.3 22.4 1.021 0.04
23:16 1027 30.33 856 25.28 0.5 32.8 65 -5.4 22.2 0.863 0.034
23:17 1027 30.33 856 25.28 0.4 32.7 65 -5.4 22.3 0.817 0.032
23:18 1027 30.33 856 25.28 0.4 32.7 65 -5.4 22.3 0.772 0.03
23:19 1027 30.33 856 25.28 0.3 32.6 65 -5.5 22.1 0.745 0.029
23:20 1027 30.33 856 25.28 0.3 32.6 65 -5.5 22.1 0.723 0.028
23:21 1027 30.33 856 25.28 0.3 32.6 65 -5.5 22.1 0.729 0.029
23:22 1027 30.33 856 25.28 0.4 32.7 64 -5.7 21.8 0.786 0.031
23:23 1027 30.33 856 25.28 0.4 32.8 64 -5.6 22 0.866 0.034
23:24 1027 30.33 856 25.28 0.4 32.8 63 -5.8 21.5 0.815 0.032
23:25 1026 30.3 856 25.28 0.6 33 62 -5.9 21.3 0.986 0.039
23:26 1026 30.3 856 25.28 0.8 33.4 62 -5.8 21.6 1.161 0.046
23:27 1026 30.3 856 25.28 1 33.8 60 -6 21.2 1.343 0.053
23:28 1026 30.3 856 25.28 1.1 34 59 -5.9 21.4 1.524 0.06
23:29 1026 30.3 856 25.28 1.2 34.2 59 -5.9 21.4 1.575 0.062
23:30 1026 30.3 856 25.28 1.2 34.2 59 -5.9 21.4 1.593 0.063
23:31 1026 30.3 856 25.28 1.2 34.1 60 -5.8 21.5 1.576 0.062
23:32 1026 30.3 856 25.28 1.1 34 60 -5.8 21.6 1.514 0.06
23:33 1026 30.3 856 25.28 1.1 34 61 -5.7 21.8 1.52 0.06
23:34 1027 30.33 856 25.28 1 33.9 61 -5.7 21.8 1.418 0.056
23:35 1027 30.33 856 25.28 0.9 33.7 62 -5.7 21.8 1.35 0.053
23:36 1027 30.33 856 25.28 0.9 33.6 62 -5.7 21.8 1.271 0.05
23:37 1027 30.33 856 25.28 0.8 33.4 62 -5.8 21.6 1.152 0.045
23:38 1027 30.33 856 25.28 0.8 33.4 62 -5.8 21.6 1.181 0.046
23:39 1027 30.33 856 25.28 0.9 33.6 61 -5.8 21.5 1.237 0.049
23:40 1027 30.33 856 25.28 0.9 33.7 61 -5.8 21.6 1.368 0.054
23:41 1027 30.33 856 25.28 1 33.9 60 -5.9 21.3 1.43 0.056
23:42 1027 30.33 856 25.28 1.1 33.9 60 -5.9 21.4 1.504 0.059
23:43 1027 30.33 856 25.28 1.1 34 60 -5.9 21.5 1.51 0.059
23:44 1027 30.33 856 25.28 1.1 33.9 60 -5.8 21.6 1.515 0.06
23:45 1027 30.33 856 25.28 1 33.8 61 -5.7 21.7 1.425 0.056
23:46 1027 30.33 856 25.28 0.9 33.7 61 -5.7 21.7 1.346 0.053
23:47 1027 30.33 856 25.28 0.9 33.5 62 -5.7 21.7 1.289 0.051
23:48 1027 30.33 856 25.28 0.9 33.6 61 -5.8 21.6 1.272 0.05
23:49 1027 30.33 856 25.28 0.8 33.4 62 -5.6 21.9 1.238 0.049
23:50 1026 30.3 856 25.28 0.7 33.2 63 -5.6 22 1.091 0.043
23:51 1026 30.3 856 25.28 0.6 33 63 -5.6 21.9 0.984 0.039
23:52 1026 30.3 856 25.28 0.5 32.8 64 -5.6 21.9 0.887 0.035
23:53 1026 30.3 856 25.28 0.4 32.7 64 -5.6 21.8 0.791 0.031
23:54 1026 30.3 856 25.28 0.4 32.7 65 -5.5 22 0.763 0.03
23:55 1026 30.3 856 25.28 0.3 32.5 63 -5.9 21.5 0.661 0.026
23:56 1026 30.3 856 25.28 0.3 32.5 63 -5.9 21.4 0.627 0.025
23:57 1026 30.3 856 25.28 0.4 32.7 62 -6.1 21 0.757 0.03
23:58 1026 30.3 856 25.28 0.7 33.2 61 -6 21.2 1.08 0.043
23:59 1026 30.3 856 25.28 0.8 33.5 61 -5.8 21.5 1.21 0.048
24:00 1026 30.3 856 25.28 0.8 33.5 62 -5.7 21.7 1.233 0.049